<?xml version="1.0" encoding="utf-8"?>
<gpx xmlns:xsi="http://www.w3.org/2001/XMLSchema-instance" xmlns:xsd="http://www.w3.org/2001/XMLSchema" version="1.1" creator="Shapelink.com" xmlns="http://www.topografix.com/GPX/1/1" xmlns:gpxtpx="http://www.garmin.com/xmlschemas/TrackPointExtension/v1">
  <metadata>
    <name>Cykling - rekreasjon 7.26 km, 2020-04-17</name>
    <desc></desc>
    <author><name>Alexander Engvall</name></author> 
    <time>2020-04-17T12:05:48Z</time>
  </metadata>
  <trk>
    <name>Cykling - rekreasjon 7.26 km, 2020-04-17</name>
    <trkseg>
      <trkpt lat="59.21976551421" lon="17.907167100014">
        <ele>46.6</ele>
        <time>2020-04-17T12:05:48Z</time>
      </trkpt>
      <trkpt lat="59.219742463985" lon="17.907178164122">
        <ele>46.6</ele>
        <time>2020-04-17T12:05:50Z</time>
      </trkpt>
      <trkpt lat="59.219723688529" lon="17.907172715887">
        <ele>46.6</ele>
        <time>2020-04-17T12:05:51Z</time>
      </trkpt>
      <trkpt lat="59.219702566141" lon="17.907141702857">
        <ele>46.6</ele>
        <time>2020-04-17T12:05:52Z</time>
      </trkpt>
      <trkpt lat="59.219685718522" lon="17.907098787529">
        <ele>46.4</ele>
        <time>2020-04-17T12:05:53Z</time>
      </trkpt>
      <trkpt lat="59.219669206179" lon="17.907052435622">
        <ele>46.4</ele>
        <time>2020-04-17T12:05:54Z</time>
      </trkpt>
      <trkpt lat="59.21964732942" lon="17.907009939389">
        <ele>46.4</ele>
        <time>2020-04-17T12:05:55Z</time>
      </trkpt>
      <trkpt lat="59.219620423521" lon="17.906977836712">
        <ele>46.4</ele>
        <time>2020-04-17T12:05:56Z</time>
      </trkpt>
      <trkpt lat="59.219581531505" lon="17.90694950589">
        <ele>46.2</ele>
        <time>2020-04-17T12:05:57Z</time>
      </trkpt>
      <trkpt lat="59.219537694168" lon="17.906930478977">
        <ele>46.2</ele>
        <time>2020-04-17T12:05:58Z</time>
      </trkpt>
      <trkpt lat="59.219490755528" lon="17.906918660498">
        <ele>46</ele>
        <time>2020-04-17T12:05:59Z</time>
      </trkpt>
      <trkpt lat="59.219441805232" lon="17.906922935267">
        <ele>46</ele>
        <time>2020-04-17T12:06:00Z</time>
      </trkpt>
      <trkpt lat="59.219393944583" lon="17.906953193926">
        <ele>46</ele>
        <time>2020-04-17T12:06:01Z</time>
      </trkpt>
      <trkpt lat="59.219349604332" lon="17.907003317688">
        <ele>46</ele>
        <time>2020-04-17T12:06:02Z</time>
      </trkpt>
      <trkpt lat="59.219307778651" lon="17.907057297124">
        <ele>45.8</ele>
        <time>2020-04-17T12:06:03Z</time>
      </trkpt>
      <trkpt lat="59.219265869151" lon="17.90711211475">
        <ele>45.8</ele>
        <time>2020-04-17T12:06:04Z</time>
      </trkpt>
      <trkpt lat="59.219224462565" lon="17.907172129154">
        <ele>45.8</ele>
        <time>2020-04-17T12:06:05Z</time>
      </trkpt>
      <trkpt lat="59.21918297216" lon="17.907237424155">
        <ele>45.6</ele>
        <time>2020-04-17T12:06:06Z</time>
      </trkpt>
      <trkpt lat="59.219140727384" lon="17.907300623681">
        <ele>45.4</ele>
        <time>2020-04-17T12:06:07Z</time>
      </trkpt>
      <trkpt lat="59.219097057685" lon="17.907358794067">
        <ele>45</ele>
        <time>2020-04-17T12:06:08Z</time>
      </trkpt>
      <trkpt lat="59.219047436837" lon="17.907391986391">
        <ele>44.6</ele>
        <time>2020-04-17T12:06:09Z</time>
      </trkpt>
      <trkpt lat="59.218993122125" lon="17.907376228419">
        <ele>44.4</ele>
        <time>2020-04-17T12:06:10Z</time>
      </trkpt>
      <trkpt lat="59.218947189313" lon="17.907316549291">
        <ele>44.2</ele>
        <time>2020-04-17T12:06:11Z</time>
      </trkpt>
      <trkpt lat="59.218906201822" lon="17.907221750002">
        <ele>44.2</ele>
        <time>2020-04-17T12:06:12Z</time>
      </trkpt>
      <trkpt lat="59.218869908195" lon="17.907113455854">
        <ele>44</ele>
        <time>2020-04-17T12:06:13Z</time>
      </trkpt>
      <trkpt lat="59.218836967328" lon="17.906998707643">
        <ele>44</ele>
        <time>2020-04-17T12:06:14Z</time>
      </trkpt>
      <trkpt lat="59.218805451384" lon="17.906879349387">
        <ele>44</ele>
        <time>2020-04-17T12:06:15Z</time>
      </trkpt>
      <trkpt lat="59.218774186897" lon="17.906759991131">
        <ele>44</ele>
        <time>2020-04-17T12:06:16Z</time>
      </trkpt>
      <trkpt lat="59.218737222718" lon="17.906646164929">
        <ele>43.8</ele>
        <time>2020-04-17T12:06:17Z</time>
      </trkpt>
      <trkpt lat="59.218697073417" lon="17.906539044247">
        <ele>43.6</ele>
        <time>2020-04-17T12:06:18Z</time>
      </trkpt>
      <trkpt lat="59.218657846125" lon="17.906431672108">
        <ele>43.6</ele>
        <time>2020-04-17T12:06:19Z</time>
      </trkpt>
      <trkpt lat="59.218617110091" lon="17.906324635245">
        <ele>43.6</ele>
        <time>2020-04-17T12:06:20Z</time>
      </trkpt>
      <trkpt lat="59.218575032953" lon="17.90621776602">
        <ele>43.4</ele>
        <time>2020-04-17T12:06:21Z</time>
      </trkpt>
      <trkpt lat="59.21853337491" lon="17.906108549863">
        <ele>43.4</ele>
        <time>2020-04-17T12:06:22Z</time>
      </trkpt>
      <trkpt lat="59.218490543401" lon="17.905999920439">
        <ele>43.2</ele>
        <time>2020-04-17T12:06:23Z</time>
      </trkpt>
      <trkpt lat="59.218450561738" lon="17.905893554128">
        <ele>43</ele>
        <time>2020-04-17T12:06:24Z</time>
      </trkpt>
      <trkpt lat="59.218410328618" lon="17.905783499781">
        <ele>42.8</ele>
        <time>2020-04-17T12:06:25Z</time>
      </trkpt>
      <trkpt lat="59.218370263136" lon="17.905672020511">
        <ele>42.8</ele>
        <time>2020-04-17T12:06:26Z</time>
      </trkpt>
      <trkpt lat="59.218329527102" lon="17.905562720535">
        <ele>42.8</ele>
        <time>2020-04-17T12:06:27Z</time>
      </trkpt>
      <trkpt lat="59.218288120516" lon="17.905454258749">
        <ele>42.8</ele>
        <time>2020-04-17T12:06:28Z</time>
      </trkpt>
      <trkpt lat="59.218245959559" lon="17.905344874954">
        <ele>42.6</ele>
        <time>2020-04-17T12:06:29Z</time>
      </trkpt>
      <trkpt lat="59.218203798602" lon="17.90523792191">
        <ele>42.6</ele>
        <time>2020-04-17T12:06:30Z</time>
      </trkpt>
      <trkpt lat="59.218161721464" lon="17.90513147178">
        <ele>42.6</ele>
        <time>2020-04-17T12:06:31Z</time>
      </trkpt>
      <trkpt lat="59.218121572163" lon="17.905026278935">
        <ele>42.6</ele>
        <time>2020-04-17T12:06:32Z</time>
      </trkpt>
      <trkpt lat="59.218083853613" lon="17.904925109402">
        <ele>42.6</ele>
        <time>2020-04-17T12:06:33Z</time>
      </trkpt>
      <trkpt lat="59.218047057072" lon="17.904827460267">
        <ele>42.6</ele>
        <time>2020-04-17T12:06:34Z</time>
      </trkpt>
      <trkpt lat="59.218010595807" lon="17.904731738969">
        <ele>42.4</ele>
        <time>2020-04-17T12:06:35Z</time>
      </trkpt>
      <trkpt lat="59.217973966904" lon="17.904637945508">
        <ele>42.4</ele>
        <time>2020-04-17T12:06:36Z</time>
      </trkpt>
      <trkpt lat="59.217939433476" lon="17.904548845911">
        <ele>42.2</ele>
        <time>2020-04-17T12:06:37Z</time>
      </trkpt>
      <trkpt lat="59.217905235324" lon="17.904458489029">
        <ele>42.2</ele>
        <time>2020-04-17T12:06:38Z</time>
      </trkpt>
      <trkpt lat="59.217872965009" lon="17.904366371948">
        <ele>42</ele>
        <time>2020-04-17T12:06:39Z</time>
      </trkpt>
      <trkpt lat="59.217841197608" lon="17.904273584315">
        <ele>42</ele>
        <time>2020-04-17T12:06:40Z</time>
      </trkpt>
      <trkpt lat="59.217806747999" lon="17.904177863017">
        <ele>42</ele>
        <time>2020-04-17T12:06:41Z</time>
      </trkpt>
      <trkpt lat="59.217770873467" lon="17.904084991565">
        <ele>42</ele>
        <time>2020-04-17T12:06:42Z</time>
      </trkpt>
      <trkpt lat="59.217734915116" lon="17.903990862828">
        <ele>42</ele>
        <time>2020-04-17T12:06:43Z</time>
      </trkpt>
      <trkpt lat="59.217697112747" lon="17.903893968064">
        <ele>42.2</ele>
        <time>2020-04-17T12:06:44Z</time>
      </trkpt>
      <trkpt lat="59.217660316206" lon="17.903801850983">
        <ele>42.2</ele>
        <time>2020-04-17T12:06:45Z</time>
      </trkpt>
      <trkpt lat="59.217626034235" lon="17.903713924852">
        <ele>42.2</ele>
        <time>2020-04-17T12:06:46Z</time>
      </trkpt>
      <trkpt lat="59.217593428644" lon="17.903625579626">
        <ele>42.4</ele>
        <time>2020-04-17T12:06:47Z</time>
      </trkpt>
      <trkpt lat="59.217560320139" lon="17.903539246056">
        <ele>42.4</ele>
        <time>2020-04-17T12:06:48Z</time>
      </trkpt>
      <trkpt lat="59.217527379272" lon="17.903453247762">
        <ele>42.4</ele>
        <time>2020-04-17T12:06:49Z</time>
      </trkpt>
      <trkpt lat="59.217498545536" lon="17.903373116798">
        <ele>42.4</ele>
        <time>2020-04-17T12:06:50Z</time>
      </trkpt>
      <trkpt lat="59.217471052904" lon="17.903317125706">
        <ele>42.4</ele>
        <time>2020-04-17T12:06:51Z</time>
      </trkpt>
      <trkpt lat="59.21744037515" lon="17.903298601707">
        <ele>42.4</ele>
        <time>2020-04-17T12:06:52Z</time>
      </trkpt>
      <trkpt lat="59.217406596093" lon="17.903306983607">
        <ele>42.4</ele>
        <time>2020-04-17T12:06:53Z</time>
      </trkpt>
      <trkpt lat="59.217369045181" lon="17.903317125706">
        <ele>42.4</ele>
        <time>2020-04-17T12:06:54Z</time>
      </trkpt>
      <trkpt lat="59.217330823717" lon="17.903322825398">
        <ele>42.6</ele>
        <time>2020-04-17T12:06:55Z</time>
      </trkpt>
      <trkpt lat="59.217290758235" lon="17.903322154846">
        <ele>42.6</ele>
        <time>2020-04-17T12:06:56Z</time>
      </trkpt>
      <trkpt lat="59.217247339993" lon="17.903321735751">
        <ele>42.6</ele>
        <time>2020-04-17T12:06:57Z</time>
      </trkpt>
      <trkpt lat="59.217201742457" lon="17.903321568113">
        <ele>42.4</ele>
        <time>2020-04-17T12:06:58Z</time>
      </trkpt>
      <trkpt lat="59.217155642007" lon="17.903319472638">
        <ele>42.4</ele>
        <time>2020-04-17T12:06:59Z</time>
      </trkpt>
      <trkpt lat="59.217109457738" lon="17.903320897561">
        <ele>42.4</ele>
        <time>2020-04-17T12:07:00Z</time>
      </trkpt>
      <trkpt lat="59.217065452763" lon="17.903340343569">
        <ele>42.4</ele>
        <time>2020-04-17T12:07:01Z</time>
      </trkpt>
      <trkpt lat="59.217026476928" lon="17.903382588345">
        <ele>42.4</ele>
        <time>2020-04-17T12:07:02Z</time>
      </trkpt>
      <trkpt lat="59.21699529626" lon="17.903446793699">
        <ele>42.4</ele>
        <time>2020-04-17T12:07:03Z</time>
      </trkpt>
      <trkpt lat="59.21697015056" lon="17.90351879422">
        <ele>42.6</ele>
        <time>2020-04-17T12:07:04Z</time>
      </trkpt>
      <trkpt lat="59.216949028172" lon="17.903595237148">
        <ele>42.6</ele>
        <time>2020-04-17T12:07:05Z</time>
      </trkpt>
      <trkpt lat="59.216928827793" lon="17.903677966501">
        <ele>42.6</ele>
        <time>2020-04-17T12:07:06Z</time>
      </trkpt>
      <trkpt lat="59.216910974346" lon="17.903764551528">
        <ele>42.6</ele>
        <time>2020-04-17T12:07:07Z</time>
      </trkpt>
      <trkpt lat="59.216894042908" lon="17.90385407022">
        <ele>42.6</ele>
        <time>2020-04-17T12:07:08Z</time>
      </trkpt>
      <trkpt lat="59.216878117298" lon="17.903944930016">
        <ele>42.6</ele>
        <time>2020-04-17T12:07:09Z</time>
      </trkpt>
      <trkpt lat="59.216863197516" lon="17.904039813124">
        <ele>42.6</ele>
        <time>2020-04-17T12:07:10Z</time>
      </trkpt>
      <trkpt lat="59.216849283562" lon="17.904135785879">
        <ele>42.6</ele>
        <time>2020-04-17T12:07:11Z</time>
      </trkpt>
      <trkpt lat="59.216835788703" lon="17.904232764462">
        <ele>42.8</ele>
        <time>2020-04-17T12:07:12Z</time>
      </trkpt>
      <trkpt lat="59.216823886405" lon="17.904326893199">
        <ele>42.8</ele>
        <time>2020-04-17T12:07:13Z</time>
      </trkpt>
      <trkpt lat="59.216811481193" lon="17.904421860126">
        <ele>42.8</ele>
        <time>2020-04-17T12:07:14Z</time>
      </trkpt>
      <trkpt lat="59.216798908343" lon="17.904518922528">
        <ele>43</ele>
        <time>2020-04-17T12:07:15Z</time>
      </trkpt>
      <trkpt lat="59.216785245846" lon="17.90461514674">
        <ele>43.2</ele>
        <time>2020-04-17T12:07:16Z</time>
      </trkpt>
      <trkpt lat="59.216773846462" lon="17.904708521106">
        <ele>43.4</ele>
        <time>2020-04-17T12:07:17Z</time>
      </trkpt>
      <trkpt lat="59.216761022155" lon="17.904805918784">
        <ele>43.4</ele>
        <time>2020-04-17T12:07:18Z</time>
      </trkpt>
      <trkpt lat="59.216748449305" lon="17.904896610942">
        <ele>43.6</ele>
        <time>2020-04-17T12:07:19Z</time>
      </trkpt>
      <trkpt lat="59.216735205903" lon="17.904991326412">
        <ele>43.6</ele>
        <time>2020-04-17T12:07:20Z</time>
      </trkpt>
      <trkpt lat="59.216721543406" lon="17.905081012742">
        <ele>43.8</ele>
        <time>2020-04-17T12:07:21Z</time>
      </trkpt>
      <trkpt lat="59.21670947347" lon="17.905163406819">
        <ele>44</ele>
        <time>2020-04-17T12:07:22Z</time>
      </trkpt>
      <trkpt lat="59.216697990267" lon="17.905249572751">
        <ele>44.2</ele>
        <time>2020-04-17T12:07:23Z</time>
      </trkpt>
      <trkpt lat="59.216685585055" lon="17.905337415063">
        <ele>44.6</ele>
        <time>2020-04-17T12:07:24Z</time>
      </trkpt>
      <trkpt lat="59.216674520947" lon="17.905424083909">
        <ele>44.8</ele>
        <time>2020-04-17T12:07:25Z</time>
      </trkpt>
      <trkpt lat="59.216661361364" lon="17.905509411651">
        <ele>45</ele>
        <time>2020-04-17T12:07:26Z</time>
      </trkpt>
      <trkpt lat="59.216645435754" lon="17.905597673058">
        <ele>45.2</ele>
        <time>2020-04-17T12:07:27Z</time>
      </trkpt>
      <trkpt lat="59.216629761601" lon="17.905676630556">
        <ele>45.4</ele>
        <time>2020-04-17T12:07:28Z</time>
      </trkpt>
      <trkpt lat="59.216612746344" lon="17.90576430523">
        <ele>45.4</ele>
        <time>2020-04-17T12:07:29Z</time>
      </trkpt>
      <trkpt lat="59.216595814906" lon="17.905854159198">
        <ele>45.8</ele>
        <time>2020-04-17T12:07:30Z</time>
      </trkpt>
      <trkpt lat="59.216578296735" lon="17.905943174976">
        <ele>46</ele>
        <time>2020-04-17T12:07:31Z</time>
      </trkpt>
      <trkpt lat="59.216556252338" lon="17.906031017288">
        <ele>46.2</ele>
        <time>2020-04-17T12:07:32Z</time>
      </trkpt>
      <trkpt lat="59.216533956484" lon="17.906116847944">
        <ele>46.4</ele>
        <time>2020-04-17T12:07:33Z</time>
      </trkpt>
      <trkpt lat="59.216510319526" lon="17.90620435498">
        <ele>46.6</ele>
        <time>2020-04-17T12:07:34Z</time>
      </trkpt>
      <trkpt lat="59.216489700052" lon="17.906291945835">
        <ele>46.8</ele>
        <time>2020-04-17T12:07:35Z</time>
      </trkpt>
      <trkpt lat="59.216468829121" lon="17.906382554174">
        <ele>46.8</ele>
        <time>2020-04-17T12:07:36Z</time>
      </trkpt>
      <trkpt lat="59.216444940706" lon="17.906453884143">
        <ele>47</ele>
        <time>2020-04-17T12:07:37Z</time>
      </trkpt>
      <trkpt lat="59.216419627368" lon="17.906517418945">
        <ele>47.2</ele>
        <time>2020-04-17T12:07:38Z</time>
      </trkpt>
      <trkpt lat="59.216388614338" lon="17.906577098073">
        <ele>47.2</ele>
        <time>2020-04-17T12:07:39Z</time>
      </trkpt>
      <trkpt lat="59.216355505833" lon="17.906631328966">
        <ele>47.2</ele>
        <time>2020-04-17T12:07:40Z</time>
      </trkpt>
      <trkpt lat="59.216321894414" lon="17.906688912619">
        <ele>47.4</ele>
        <time>2020-04-17T12:07:41Z</time>
      </trkpt>
      <trkpt lat="59.216288282995" lon="17.906740377485">
        <ele>47.8</ele>
        <time>2020-04-17T12:07:42Z</time>
      </trkpt>
      <trkpt lat="59.216253162834" lon="17.906793434912">
        <ele>48</ele>
        <time>2020-04-17T12:07:43Z</time>
      </trkpt>
      <trkpt lat="59.216219886691" lon="17.906841966113">
        <ele>48.2</ele>
        <time>2020-04-17T12:07:44Z</time>
      </trkpt>
      <trkpt lat="59.216187448738" lon="17.906889575305">
        <ele>48.4</ele>
        <time>2020-04-17T12:07:45Z</time>
      </trkpt>
      <trkpt lat="59.216154507871" lon="17.906939782886">
        <ele>48.8</ele>
        <time>2020-04-17T12:07:46Z</time>
      </trkpt>
      <trkpt lat="59.216125087402" lon="17.906979093997">
        <ele>48.8</ele>
        <time>2020-04-17T12:07:47Z</time>
      </trkpt>
      <trkpt lat="59.216095331657" lon="17.907021422592">
        <ele>49.2</ele>
        <time>2020-04-17T12:07:48Z</time>
      </trkpt>
      <trkpt lat="59.21606574355" lon="17.907066936309">
        <ele>49.4</ele>
        <time>2020-04-17T12:07:49Z</time>
      </trkpt>
      <trkpt lat="59.216037831823" lon="17.907117646804">
        <ele>49.4</ele>
        <time>2020-04-17T12:07:50Z</time>
      </trkpt>
      <trkpt lat="59.21601293758" lon="17.90716575891">
        <ele>49.6</ele>
        <time>2020-04-17T12:07:51Z</time>
      </trkpt>
      <trkpt lat="59.215987121328" lon="17.907226527685">
        <ele>49.8</ele>
        <time>2020-04-17T12:07:52Z</time>
      </trkpt>
      <trkpt lat="59.215963568189" lon="17.907287464098">
        <ele>50</ele>
        <time>2020-04-17T12:07:53Z</time>
      </trkpt>
      <trkpt lat="59.215942781077" lon="17.907348819606">
        <ele>50.4</ele>
        <time>2020-04-17T12:07:54Z</time>
      </trkpt>
      <trkpt lat="59.215925095268" lon="17.907421239222">
        <ele>50.6</ele>
        <time>2020-04-17T12:07:55Z</time>
      </trkpt>
      <trkpt lat="59.215911935685" lon="17.907498185064">
        <ele>51</ele>
        <time>2020-04-17T12:07:56Z</time>
      </trkpt>
      <trkpt lat="59.2159022965" lon="17.907580746779">
        <ele>51.4</ele>
        <time>2020-04-17T12:07:57Z</time>
      </trkpt>
      <trkpt lat="59.215895842437" lon="17.90767118748">
        <ele>51.8</ele>
        <time>2020-04-17T12:07:58Z</time>
      </trkpt>
      <trkpt lat="59.215891316211" lon="17.907771099728">
        <ele>52.2</ele>
        <time>2020-04-17T12:07:59Z</time>
      </trkpt>
      <trkpt lat="59.215888717822" lon="17.907878136591">
        <ele>52.4</ele>
        <time>2020-04-17T12:08:00Z</time>
      </trkpt>
      <trkpt lat="59.215887963451" lon="17.907990705508">
        <ele>52.6</ele>
        <time>2020-04-17T12:08:01Z</time>
      </trkpt>
      <trkpt lat="59.215888550184" lon="17.908109477031">
        <ele>52.6</ele>
        <time>2020-04-17T12:08:02Z</time>
      </trkpt>
      <trkpt lat="59.215889556012" lon="17.908236211359">
        <ele>52.8</ele>
        <time>2020-04-17T12:08:03Z</time>
      </trkpt>
      <trkpt lat="59.215891819125" lon="17.908358419461">
        <ele>52.8</ele>
        <time>2020-04-17T12:08:04Z</time>
      </trkpt>
      <trkpt lat="59.215897099722" lon="17.908489428558">
        <ele>52.8</ele>
        <time>2020-04-17T12:08:05Z</time>
      </trkpt>
      <trkpt lat="59.215905816898" lon="17.908620772931">
        <ele>52.8</ele>
        <time>2020-04-17T12:08:06Z</time>
      </trkpt>
      <trkpt lat="59.215912690056" lon="17.908757816996">
        <ele>52.8</ele>
        <time>2020-04-17T12:08:07Z</time>
      </trkpt>
      <trkpt lat="59.215911684228" lon="17.908898381459">
        <ele>52.8</ele>
        <time>2020-04-17T12:08:08Z</time>
      </trkpt>
      <trkpt lat="59.215905481622" lon="17.909030480203">
        <ele>52.8</ele>
        <time>2020-04-17T12:08:09Z</time>
      </trkpt>
      <trkpt lat="59.215893327867" lon="17.909170541752">
        <ele>52.8</ele>
        <time>2020-04-17T12:08:10Z</time>
      </trkpt>
      <trkpt lat="59.215880335922" lon="17.909310854758">
        <ele>52.6</ele>
        <time>2020-04-17T12:08:11Z</time>
      </trkpt>
      <trkpt lat="59.215868349805" lon="17.909452760325">
        <ele>52.2</ele>
        <time>2020-04-17T12:08:12Z</time>
      </trkpt>
      <trkpt lat="59.215858123887" lon="17.909591396951">
        <ele>52</ele>
        <time>2020-04-17T12:08:13Z</time>
      </trkpt>
      <trkpt lat="59.215846892141" lon="17.909735565631">
        <ele>51.8</ele>
        <time>2020-04-17T12:08:14Z</time>
      </trkpt>
      <trkpt lat="59.215834989843" lon="17.909879901949">
        <ele>51.6</ele>
        <time>2020-04-17T12:08:15Z</time>
      </trkpt>
      <trkpt lat="59.215823087545" lon="17.91002566319">
        <ele>51.4</ele>
        <time>2020-04-17T12:08:16Z</time>
      </trkpt>
      <trkpt lat="59.215823087545" lon="17.91002566319">
        <ele>51.4</ele>
        <time>2020-04-17T12:08:17Z</time>
      </trkpt>
      <trkpt lat="59.215798780035" lon="17.910311569799">
        <ele>51.2</ele>
        <time>2020-04-17T12:08:18Z</time>
      </trkpt>
      <trkpt lat="59.215786374823" lon="17.910449116778">
        <ele>51</ele>
        <time>2020-04-17T12:08:19Z</time>
      </trkpt>
      <trkpt lat="59.215770868308" lon="17.910583394816">
        <ele>50.8</ele>
        <time>2020-04-17T12:08:20Z</time>
      </trkpt>
      <trkpt lat="59.215756954354" lon="17.910715996474">
        <ele>50.8</ele>
        <time>2020-04-17T12:08:21Z</time>
      </trkpt>
      <trkpt lat="59.215748488635" lon="17.910847592304">
        <ele>50.8</ele>
        <time>2020-04-17T12:08:22Z</time>
      </trkpt>
      <trkpt lat="59.215740944925" lon="17.91097784703">
        <ele>50.6</ele>
        <time>2020-04-17T12:08:23Z</time>
      </trkpt>
      <trkpt lat="59.215731138102" lon="17.911109191403">
        <ele>50.4</ele>
        <time>2020-04-17T12:08:24Z</time>
      </trkpt>
      <trkpt lat="59.215721834193" lon="17.911241122509">
        <ele>50.2</ele>
        <time>2020-04-17T12:08:25Z</time>
      </trkpt>
      <trkpt lat="59.215712781741" lon="17.91137011995">
        <ele>50.2</ele>
        <time>2020-04-17T12:08:26Z</time>
      </trkpt>
      <trkpt lat="59.215703729289" lon="17.911498530658">
        <ele>50.2</ele>
        <time>2020-04-17T12:08:27Z</time>
      </trkpt>
      <trkpt lat="59.215693251914" lon="17.911624175339">
        <ele>50.2</ele>
        <time>2020-04-17T12:08:28Z</time>
      </trkpt>
      <trkpt lat="59.215681601073" lon="17.911748562735">
        <ele>50.2</ele>
        <time>2020-04-17T12:08:29Z</time>
      </trkpt>
      <trkpt lat="59.215671039879" lon="17.911871525208">
        <ele>50.2</ele>
        <time>2020-04-17T12:08:30Z</time>
      </trkpt>
      <trkpt lat="59.215659891952" lon="17.911996080242">
        <ele>50.2</ele>
        <time>2020-04-17T12:08:31Z</time>
      </trkpt>
      <trkpt lat="59.215647402921" lon="17.912117953068">
        <ele>50.2</ele>
        <time>2020-04-17T12:08:32Z</time>
      </trkpt>
      <trkpt lat="59.215633824243" lon="17.912241334636">
        <ele>50.2</ele>
        <time>2020-04-17T12:08:33Z</time>
      </trkpt>
      <trkpt lat="59.215619910289" lon="17.912364380928">
        <ele>50.2</ele>
        <time>2020-04-17T12:08:34Z</time>
      </trkpt>
      <trkpt lat="59.215607672715" lon="17.912488097772">
        <ele>50.2</ele>
        <time>2020-04-17T12:08:35Z</time>
      </trkpt>
      <trkpt lat="59.215598284987" lon="17.912610054417">
        <ele>50.2</ele>
        <time>2020-04-17T12:08:36Z</time>
      </trkpt>
      <trkpt lat="59.215589064897" lon="17.912738213668">
        <ele>50.4</ele>
        <time>2020-04-17T12:08:37Z</time>
      </trkpt>
      <trkpt lat="59.215580515359" lon="17.912867630204">
        <ele>50.6</ele>
        <time>2020-04-17T12:08:38Z</time>
      </trkpt>
      <trkpt lat="59.215571714364" lon="17.912999142215">
        <ele>50.8</ele>
        <time>2020-04-17T12:08:39Z</time>
      </trkpt>
      <trkpt lat="59.215558387143" lon="17.913129732217">
        <ele>51</ele>
        <time>2020-04-17T12:08:40Z</time>
      </trkpt>
      <trkpt lat="59.215537516212" lon="17.913257891468">
        <ele>51</ele>
        <time>2020-04-17T12:08:41Z</time>
      </trkpt>
      <trkpt lat="59.215513124883" lon="17.91338345233">
        <ele>51</ele>
        <time>2020-04-17T12:08:42Z</time>
      </trkpt>
      <trkpt lat="59.215487979183" lon="17.913508929373">
        <ele>51.2</ele>
        <time>2020-04-17T12:08:43Z</time>
      </trkpt>
      <trkpt lat="59.215461827655" lon="17.913632981493">
        <ele>51.2</ele>
        <time>2020-04-17T12:08:44Z</time>
      </trkpt>
      <trkpt lat="59.21543710105" lon="17.913757452708">
        <ele>51.4</ele>
        <time>2020-04-17T12:08:45Z</time>
      </trkpt>
      <trkpt lat="59.215415978662" lon="17.913884773769">
        <ele>51.4</ele>
        <time>2020-04-17T12:08:46Z</time>
      </trkpt>
      <trkpt lat="59.215401477975" lon="17.914013184477">
        <ele>51.4</ele>
        <time>2020-04-17T12:08:47Z</time>
      </trkpt>
      <trkpt lat="59.215391419695" lon="17.914142684832">
        <ele>51.4</ele>
        <time>2020-04-17T12:08:48Z</time>
      </trkpt>
      <trkpt lat="59.215374572076" lon="17.914266234038">
        <ele>51</ele>
        <time>2020-04-17T12:08:49Z</time>
      </trkpt>
      <trkpt lat="59.215344816331" lon="17.914370923969">
        <ele>51</ele>
        <time>2020-04-17T12:08:50Z</time>
      </trkpt>
      <trkpt lat="59.215306511048" lon="17.914463208688">
        <ele>50.8</ele>
        <time>2020-04-17T12:08:51Z</time>
      </trkpt>
      <trkpt lat="59.215261835521" lon="17.914547614421">
        <ele>50.8</ele>
        <time>2020-04-17T12:08:52Z</time>
      </trkpt>
      <trkpt lat="59.215211041207" lon="17.914620453132">
        <ele>50.6</ele>
        <time>2020-04-17T12:08:53Z</time>
      </trkpt>
      <trkpt lat="59.215159743979" lon="17.914679964622">
        <ele>50.6</ele>
        <time>2020-04-17T12:08:54Z</time>
      </trkpt>
      <trkpt lat="59.215109117303" lon="17.914738218827">
        <ele>50.6</ele>
        <time>2020-04-17T12:08:55Z</time>
      </trkpt>
      <trkpt lat="59.215058742084" lon="17.914792952634">
        <ele>50.6</ele>
        <time>2020-04-17T12:08:56Z</time>
      </trkpt>
      <trkpt lat="59.21500710958" lon="17.914845004233">
        <ele>50.6</ele>
        <time>2020-04-17T12:08:57Z</time>
      </trkpt>
      <trkpt lat="59.214956231447" lon="17.91488716519">
        <ele>50.6</ele>
        <time>2020-04-17T12:08:58Z</time>
      </trkpt>
      <trkpt lat="59.214907448789" lon="17.914924297007">
        <ele>50.6</ele>
        <time>2020-04-17T12:08:59Z</time>
      </trkpt>
      <trkpt lat="59.214858330855" lon="17.91495422039">
        <ele>50.6</ele>
        <time>2020-04-17T12:09:00Z</time>
      </trkpt>
      <trkpt lat="59.214809212921" lon="17.914987831809">
        <ele>50.6</ele>
        <time>2020-04-17T12:09:01Z</time>
      </trkpt>
      <trkpt lat="59.214757412779" lon="17.915025047445">
        <ele>50.6</ele>
        <time>2020-04-17T12:09:02Z</time>
      </trkpt>
      <trkpt lat="59.214706534646" lon="17.915061843986">
        <ele>50.6</ele>
        <time>2020-04-17T12:09:03Z</time>
      </trkpt>
      <trkpt lat="59.214657416712" lon="17.915099562536">
        <ele>50.6</ele>
        <time>2020-04-17T12:09:04Z</time>
      </trkpt>
      <trkpt lat="59.214607963502" lon="17.915136275258">
        <ele>50.8</ele>
        <time>2020-04-17T12:09:05Z</time>
      </trkpt>
      <trkpt lat="59.214558175016" lon="17.915169216125">
        <ele>51.2</ele>
        <time>2020-04-17T12:09:06Z</time>
      </trkpt>
      <trkpt lat="59.21450838653" lon="17.915201234983">
        <ele>51.6</ele>
        <time>2020-04-17T12:09:07Z</time>
      </trkpt>
      <trkpt lat="59.214457843673" lon="17.915233756755">
        <ele>51.8</ele>
        <time>2020-04-17T12:09:08Z</time>
      </trkpt>
      <trkpt lat="59.214407719911" lon="17.915270385658">
        <ele>52</ele>
        <time>2020-04-17T12:09:09Z</time>
      </trkpt>
      <trkpt lat="59.214360362176" lon="17.915307266018">
        <ele>52.2</ele>
        <time>2020-04-17T12:09:10Z</time>
      </trkpt>
      <trkpt lat="59.214312836803" lon="17.915341883265">
        <ele>52.4</ele>
        <time>2020-04-17T12:09:11Z</time>
      </trkpt>
      <trkpt lat="59.214271681674" lon="17.915374405037">
        <ele>52.4</ele>
        <time>2020-04-17T12:09:12Z</time>
      </trkpt>
      <trkpt lat="59.21422507831" lon="17.91540935756">
        <ele>52.6</ele>
        <time>2020-04-17T12:09:13Z</time>
      </trkpt>
      <trkpt lat="59.214175373643" lon="17.915441544056">
        <ele>52.6</ele>
        <time>2020-04-17T12:09:14Z</time>
      </trkpt>
      <trkpt lat="59.214125082243" lon="17.915475239294">
        <ele>52.6</ele>
        <time>2020-04-17T12:09:15Z</time>
      </trkpt>
      <trkpt lat="59.214075461395" lon="17.915512622568">
        <ele>52.8</ele>
        <time>2020-04-17T12:09:16Z</time>
      </trkpt>
      <trkpt lat="59.21402558909" lon="17.915550592575">
        <ele>53.2</ele>
        <time>2020-04-17T12:09:17Z</time>
      </trkpt>
      <trkpt lat="59.213975968242" lon="17.915585712736">
        <ele>53.2</ele>
        <time>2020-04-17T12:09:18Z</time>
      </trkpt>
      <trkpt lat="59.213926934127" lon="17.915616139033">
        <ele>53.4</ele>
        <time>2020-04-17T12:09:19Z</time>
      </trkpt>
      <trkpt lat="59.213878151469" lon="17.91564572714">
        <ele>53.6</ele>
        <time>2020-04-17T12:09:20Z</time>
      </trkpt>
      <trkpt lat="59.213829368811" lon="17.915674728514">
        <ele>53.6</ele>
        <time>2020-04-17T12:09:21Z</time>
      </trkpt>
      <trkpt lat="59.21377999942" lon="17.915701299137">
        <ele>53.6</ele>
        <time>2020-04-17T12:09:22Z</time>
      </trkpt>
      <trkpt lat="59.213731887314" lon="17.91572786976">
        <ele>53.6</ele>
        <time>2020-04-17T12:09:23Z</time>
      </trkpt>
      <trkpt lat="59.21368360757" lon="17.915758547514">
        <ele>53.8</ele>
        <time>2020-04-17T12:09:24Z</time>
      </trkpt>
      <trkpt lat="59.213637590939" lon="17.915793332399">
        <ele>53.8</ele>
        <time>2020-04-17T12:09:25Z</time>
      </trkpt>
      <trkpt lat="59.213592161041" lon="17.915825770352">
        <ele>53.8</ele>
        <time>2020-04-17T12:09:26Z</time>
      </trkpt>
      <trkpt lat="59.213544970944" lon="17.915853849717">
        <ele>54</ele>
        <time>2020-04-17T12:09:27Z</time>
      </trkpt>
      <trkpt lat="59.213497277933" lon="17.91588125853">
        <ele>54</ele>
        <time>2020-04-17T12:09:28Z</time>
      </trkpt>
      <trkpt lat="59.21345142894" lon="17.915908499705">
        <ele>54</ele>
        <time>2020-04-17T12:09:29Z</time>
      </trkpt>
      <trkpt lat="59.213406837232" lon="17.915937752536">
        <ele>54</ele>
        <time>2020-04-17T12:09:30Z</time>
      </trkpt>
      <trkpt lat="59.213363670447" lon="17.915969100842">
        <ele>54</ele>
        <time>2020-04-17T12:09:31Z</time>
      </trkpt>
      <trkpt lat="59.213321006576" lon="17.915999694777">
        <ele>54.2</ele>
        <time>2020-04-17T12:09:32Z</time>
      </trkpt>
      <trkpt lat="59.213278845619" lon="17.916028360875">
        <ele>54.2</ele>
        <time>2020-04-17T12:09:33Z</time>
      </trkpt>
      <trkpt lat="59.213238025766" lon="17.916054093308">
        <ele>54.2</ele>
        <time>2020-04-17T12:09:34Z</time>
      </trkpt>
      <trkpt lat="59.213198463198" lon="17.916079574284">
        <ele>54.4</ele>
        <time>2020-04-17T12:09:35Z</time>
      </trkpt>
      <trkpt lat="59.2131614152" lon="17.91610421707">
        <ele>54.6</ele>
        <time>2020-04-17T12:09:36Z</time>
      </trkpt>
      <trkpt lat="59.213125624487" lon="17.916125088001">
        <ele>54.8</ele>
        <time>2020-04-17T12:09:37Z</time>
      </trkpt>
      <trkpt lat="59.213090085231" lon="17.916143947276">
        <ele>55.2</ele>
        <time>2020-04-17T12:09:38Z</time>
      </trkpt>
      <trkpt lat="59.213053707785" lon="17.91616205218">
        <ele>56</ele>
        <time>2020-04-17T12:09:39Z</time>
      </trkpt>
      <trkpt lat="59.213017414158" lon="17.916180240903">
        <ele>56.2</ele>
        <time>2020-04-17T12:09:40Z</time>
      </trkpt>
      <trkpt lat="59.212981036712" lon="17.916197842893">
        <ele>56.6</ele>
        <time>2020-04-17T12:09:41Z</time>
      </trkpt>
      <trkpt lat="59.21294432399" lon="17.916213768503">
        <ele>56.8</ele>
        <time>2020-04-17T12:09:42Z</time>
      </trkpt>
      <trkpt lat="59.212908030363" lon="17.916230867579">
        <ele>57.2</ele>
        <time>2020-04-17T12:09:43Z</time>
      </trkpt>
      <trkpt lat="59.212873664573" lon="17.91625173851">
        <ele>57.6</ele>
        <time>2020-04-17T12:09:44Z</time>
      </trkpt>
      <trkpt lat="59.212838125317" lon="17.916267496482">
        <ele>57.8</ele>
        <time>2020-04-17T12:09:45Z</time>
      </trkpt>
      <trkpt lat="59.212801915509" lon="17.916279734056">
        <ele>58.2</ele>
        <time>2020-04-17T12:09:46Z</time>
      </trkpt>
      <trkpt lat="59.212766879167" lon="17.916283338273">
        <ele>58.4</ele>
        <time>2020-04-17T12:09:47Z</time>
      </trkpt>
      <trkpt lat="59.212731842825" lon="17.916283422092">
        <ele>58.8</ele>
        <time>2020-04-17T12:09:48Z</time>
      </trkpt>
      <trkpt lat="59.21269621975" lon="17.916289205603">
        <ele>59</ele>
        <time>2020-04-17T12:09:49Z</time>
      </trkpt>
      <trkpt lat="59.21266017758" lon="17.916306556136">
        <ele>59.4</ele>
        <time>2020-04-17T12:09:50Z</time>
      </trkpt>
      <trkpt lat="59.212627404351" lon="17.916326588877">
        <ele>59.6</ele>
        <time>2020-04-17T12:09:51Z</time>
      </trkpt>
      <trkpt lat="59.21259563695" lon="17.916352405129">
        <ele>59.8</ele>
        <time>2020-04-17T12:09:52Z</time>
      </trkpt>
      <trkpt lat="59.212562444626" lon="17.91637998158">
        <ele>60</ele>
        <time>2020-04-17T12:09:53Z</time>
      </trkpt>
      <trkpt lat="59.212527575922" lon="17.916405546375">
        <ele>60.2</ele>
        <time>2020-04-17T12:09:54Z</time>
      </trkpt>
      <trkpt lat="59.212492623399" lon="17.916431530265">
        <ele>60.4</ele>
        <time>2020-04-17T12:09:55Z</time>
      </trkpt>
      <trkpt lat="59.212458006152" lon="17.916460531639">
        <ele>60.4</ele>
        <time>2020-04-17T12:09:56Z</time>
      </trkpt>
      <trkpt lat="59.212424310914" lon="17.916488359547">
        <ele>60.6</ele>
        <time>2020-04-17T12:09:57Z</time>
      </trkpt>
      <trkpt lat="59.21239195678" lon="17.916507889374">
        <ele>60.6</ele>
        <time>2020-04-17T12:09:58Z</time>
      </trkpt>
      <trkpt lat="59.212360021741" lon="17.916519540215">
        <ele>60.6</ele>
        <time>2020-04-17T12:09:59Z</time>
      </trkpt>
      <trkpt lat="59.21232657796" lon="17.916505542442">
        <ele>60.8</ele>
        <time>2020-04-17T12:10:00Z</time>
      </trkpt>
      <trkpt lat="59.21230227045" lon="17.916466901883">
        <ele>60.8</ele>
        <time>2020-04-17T12:10:01Z</time>
      </trkpt>
      <trkpt lat="59.212286428659" lon="17.916408563859">
        <ele>60.8</ele>
        <time>2020-04-17T12:10:02Z</time>
      </trkpt>
      <trkpt lat="59.21227041923" lon="17.916338658813">
        <ele>61</ele>
        <time>2020-04-17T12:10:03Z</time>
      </trkpt>
      <trkpt lat="59.212259103665" lon="17.91626179679">
        <ele>61.2</ele>
        <time>2020-04-17T12:10:04Z</time>
      </trkpt>
      <trkpt lat="59.212253487792" lon="17.916184934767">
        <ele>61.4</ele>
        <time>2020-04-17T12:10:05Z</time>
      </trkpt>
      <trkpt lat="59.212254074525" lon="17.916105306717">
        <ele>61.4</ele>
        <time>2020-04-17T12:10:06Z</time>
      </trkpt>
      <trkpt lat="59.212257678742" lon="17.916023667011">
        <ele>61.4</ele>
        <time>2020-04-17T12:10:07Z</time>
      </trkpt>
      <trkpt lat="59.21225700819" lon="17.915942362581">
        <ele>61.4</ele>
        <time>2020-04-17T12:10:08Z</time>
      </trkpt>
      <trkpt lat="59.212243848607" lon="17.915868098947">
        <ele>61.4</ele>
        <time>2020-04-17T12:10:09Z</time>
      </trkpt>
      <trkpt lat="59.212220798382" lon="17.915799032091">
        <ele>61.4</ele>
        <time>2020-04-17T12:10:10Z</time>
      </trkpt>
      <trkpt lat="59.212192635198" lon="17.915737006031">
        <ele>61.6</ele>
        <time>2020-04-17T12:10:11Z</time>
      </trkpt>
      <trkpt lat="59.212164472014" lon="17.91568176931">
        <ele>61.6</ele>
        <time>2020-04-17T12:10:12Z</time>
      </trkpt>
      <trkpt lat="59.212138655762" lon="17.915630555901">
        <ele>61.8</ele>
        <time>2020-04-17T12:10:13Z</time>
      </trkpt>
      <trkpt lat="59.21211200132" lon="17.915579258673">
        <ele>61.8</ele>
        <time>2020-04-17T12:10:14Z</time>
      </trkpt>
      <trkpt lat="59.212084760145" lon="17.915528464359">
        <ele>62</ele>
        <time>2020-04-17T12:10:15Z</time>
      </trkpt>
      <trkpt lat="59.212060284997" lon="17.915477753864">
        <ele>62</ele>
        <time>2020-04-17T12:10:16Z</time>
      </trkpt>
      <trkpt lat="59.212037989143" lon="17.915426624274">
        <ele>62</ele>
        <time>2020-04-17T12:10:17Z</time>
      </trkpt>
      <trkpt lat="59.212014855099" lon="17.915378595987">
        <ele>62</ele>
        <time>2020-04-17T12:10:18Z</time>
      </trkpt>
      <trkpt lat="59.21199046377" lon="17.915334004279">
        <ele>62</ele>
        <time>2020-04-17T12:10:19Z</time>
      </trkpt>
      <trkpt lat="59.211964060785" lon="17.915291088951">
        <ele>62</ele>
        <time>2020-04-17T12:10:20Z</time>
      </trkpt>
      <trkpt lat="59.211938579809" lon="17.915247754528">
        <ele>62.2</ele>
        <time>2020-04-17T12:10:21Z</time>
      </trkpt>
      <trkpt lat="59.211912847376" lon="17.915201654078">
        <ele>62.8</ele>
        <time>2020-04-17T12:10:22Z</time>
      </trkpt>
      <trkpt lat="59.211884265097" lon="17.915154128705">
        <ele>63</ele>
        <time>2020-04-17T12:10:23Z</time>
      </trkpt>
      <trkpt lat="59.211854341714" lon="17.915105513685">
        <ele>63.2</ele>
        <time>2020-04-17T12:10:24Z</time>
      </trkpt>
      <trkpt lat="59.211825759435" lon="17.915056563389">
        <ele>63.4</ele>
        <time>2020-04-17T12:10:25Z</time>
      </trkpt>
      <trkpt lat="59.211799524088" lon="17.915003170686">
        <ele>63.6</ele>
        <time>2020-04-17T12:10:26Z</time>
      </trkpt>
      <trkpt lat="59.21177253437" lon="17.914951873458">
        <ele>63.8</ele>
        <time>2020-04-17T12:10:27Z</time>
      </trkpt>
      <trkpt lat="59.211743532996" lon="17.91490476718">
        <ele>64</ele>
        <time>2020-04-17T12:10:28Z</time>
      </trkpt>
      <trkpt lat="59.21171386107" lon="17.914857744721">
        <ele>64.2</ele>
        <time>2020-04-17T12:10:29Z</time>
      </trkpt>
      <trkpt lat="59.211683853868" lon="17.914812398642">
        <ele>64.4</ele>
        <time>2020-04-17T12:10:30Z</time>
      </trkpt>
      <trkpt lat="59.211654601037" lon="17.91476730402">
        <ele>64.4</ele>
        <time>2020-04-17T12:10:31Z</time>
      </trkpt>
      <trkpt lat="59.211625264387" lon="17.914720281561">
        <ele>64.6</ele>
        <time>2020-04-17T12:10:32Z</time>
      </trkpt>
      <trkpt lat="59.211595592461" lon="17.91467342674">
        <ele>64.8</ele>
        <time>2020-04-17T12:10:33Z</time>
      </trkpt>
      <trkpt lat="59.211565836716" lon="17.914627074833">
        <ele>65</ele>
        <time>2020-04-17T12:10:34Z</time>
      </trkpt>
      <trkpt lat="59.211536500066" lon="17.914579968555">
        <ele>65.2</ele>
        <time>2020-04-17T12:10:35Z</time>
      </trkpt>
      <trkpt lat="59.211506995778" lon="17.914530599164">
        <ele>66</ele>
        <time>2020-04-17T12:10:36Z</time>
      </trkpt>
      <trkpt lat="59.211478078223" lon="17.914479553393">
        <ele>66.6</ele>
        <time>2020-04-17T12:10:37Z</time>
      </trkpt>
      <trkpt lat="59.211448909211" lon="17.91442951345">
        <ele>67</ele>
        <time>2020-04-17T12:10:38Z</time>
      </trkpt>
      <trkpt lat="59.211418902009" lon="17.914379976421">
        <ele>67.2</ele>
        <time>2020-04-17T12:10:39Z</time>
      </trkpt>
      <trkpt lat="59.211389230083" lon="17.914330020297">
        <ele>67.4</ele>
        <time>2020-04-17T12:10:40Z</time>
      </trkpt>
      <trkpt lat="59.211360061071" lon="17.914277381965">
        <ele>67.6</ele>
        <time>2020-04-17T12:10:41Z</time>
      </trkpt>
      <trkpt lat="59.211331311154" lon="17.914222815796">
        <ele>67.6</ele>
        <time>2020-04-17T12:10:42Z</time>
      </trkpt>
      <trkpt lat="59.211302728875" lon="17.914166992342">
        <ele>67.6</ele>
        <time>2020-04-17T12:10:43Z</time>
      </trkpt>
      <trkpt lat="59.211274817148" lon="17.914109995422">
        <ele>67.6</ele>
        <time>2020-04-17T12:10:44Z</time>
      </trkpt>
      <trkpt lat="59.211247575973" lon="17.914052076493">
        <ele>67.8</ele>
        <time>2020-04-17T12:10:45Z</time>
      </trkpt>
      <trkpt lat="59.211220250979" lon="17.91399616922">
        <ele>67.8</ele>
        <time>2020-04-17T12:10:46Z</time>
      </trkpt>
      <trkpt lat="59.211193847994" lon="17.913940764861">
        <ele>67.8</ele>
        <time>2020-04-17T12:10:47Z</time>
      </trkpt>
      <trkpt lat="59.211168618475" lon="17.913885192864">
        <ele>68</ele>
        <time>2020-04-17T12:10:48Z</time>
      </trkpt>
      <trkpt lat="59.21114389187" lon="17.91383356036">
        <ele>68.2</ele>
        <time>2020-04-17T12:10:49Z</time>
      </trkpt>
      <trkpt lat="59.211119332903" lon="17.91378075439">
        <ele>68.2</ele>
        <time>2020-04-17T12:10:50Z</time>
      </trkpt>
      <trkpt lat="59.211091169719" lon="17.913724511841">
        <ele>68.6</ele>
        <time>2020-04-17T12:10:51Z</time>
      </trkpt>
      <trkpt lat="59.211060994879" lon="17.913666509093">
        <ele>68.6</ele>
        <time>2020-04-17T12:10:52Z</time>
      </trkpt>
      <trkpt lat="59.211029646573" lon="17.913608673983">
        <ele>68.8</ele>
        <time>2020-04-17T12:10:53Z</time>
      </trkpt>
      <trkpt lat="59.210998298267" lon="17.913552012339">
        <ele>68.8</ele>
        <time>2020-04-17T12:10:54Z</time>
      </trkpt>
      <trkpt lat="59.210967201418" lon="17.913484538044">
        <ele>68.8</ele>
        <time>2020-04-17T12:10:55Z</time>
      </trkpt>
      <trkpt lat="59.210941720442" lon="17.913413543351">
        <ele>68.8</ele>
        <time>2020-04-17T12:10:56Z</time>
      </trkpt>
      <trkpt lat="59.210917496751" lon="17.913340453183">
        <ele>68.8</ele>
        <time>2020-04-17T12:10:57Z</time>
      </trkpt>
      <trkpt lat="59.210896709639" lon="17.91326945849">
        <ele>68.8</ele>
        <time>2020-04-17T12:10:58Z</time>
      </trkpt>
      <trkpt lat="59.210878688554" lon="17.913202319471">
        <ele>68.8</ele>
        <time>2020-04-17T12:10:59Z</time>
      </trkpt>
      <trkpt lat="59.210859074908" lon="17.913138197936">
        <ele>69</ele>
        <time>2020-04-17T12:11:00Z</time>
      </trkpt>
      <trkpt lat="59.210838371615" lon="17.913073741125">
        <ele>69</ele>
        <time>2020-04-17T12:11:01Z</time>
      </trkpt>
      <trkpt lat="59.210816243399" lon="17.913008194667">
        <ele>69</ele>
        <time>2020-04-17T12:11:02Z</time>
      </trkpt>
      <trkpt lat="59.210794115183" lon="17.912942732028">
        <ele>69</ele>
        <time>2020-04-17T12:11:03Z</time>
      </trkpt>
      <trkpt lat="59.21077089732" lon="17.912877353208">
        <ele>69</ele>
        <time>2020-04-17T12:11:04Z</time>
      </trkpt>
      <trkpt lat="59.21074826619" lon="17.912812225845">
        <ele>69.4</ele>
        <time>2020-04-17T12:11:05Z</time>
      </trkpt>
      <trkpt lat="59.210724964508" lon="17.912746260292">
        <ele>70</ele>
        <time>2020-04-17T12:11:06Z</time>
      </trkpt>
      <trkpt lat="59.210701914283" lon="17.912682641671">
        <ele>70.4</ele>
        <time>2020-04-17T12:11:07Z</time>
      </trkpt>
      <trkpt lat="59.210678109687" lon="17.912616759937">
        <ele>70.6</ele>
        <time>2020-04-17T12:11:08Z</time>
      </trkpt>
      <trkpt lat="59.210654556548" lon="17.912554063325">
        <ele>70.6</ele>
        <time>2020-04-17T12:11:09Z</time>
      </trkpt>
      <trkpt lat="59.21063091959" lon="17.912493378369">
        <ele>70.6</ele>
        <time>2020-04-17T12:11:10Z</time>
      </trkpt>
      <trkpt lat="59.210603678415" lon="17.912437052001">
        <ele>70.8</ele>
        <time>2020-04-17T12:11:11Z</time>
      </trkpt>
      <trkpt lat="59.210573587394" lon="17.912385587135">
        <ele>70.8</ele>
        <time>2020-04-17T12:11:12Z</time>
      </trkpt>
      <trkpt lat="59.210541903812" lon="17.912339570504">
        <ele>70.8</ele>
        <time>2020-04-17T12:11:13Z</time>
      </trkpt>
      <trkpt lat="59.210509298221" lon="17.91228961438">
        <ele>70.8</ele>
        <time>2020-04-17T12:11:14Z</time>
      </trkpt>
      <trkpt lat="59.210477782277" lon="17.912237730419">
        <ele>70.8</ele>
        <time>2020-04-17T12:11:15Z</time>
      </trkpt>
      <trkpt lat="59.210443584125" lon="17.912185175906">
        <ele>70.8</ele>
        <time>2020-04-17T12:11:16Z</time>
      </trkpt>
      <trkpt lat="59.210407793412" lon="17.912131950841">
        <ele>70.6</ele>
        <time>2020-04-17T12:11:17Z</time>
      </trkpt>
      <trkpt lat="59.210373427622" lon="17.912077049396">
        <ele>70.6</ele>
        <time>2020-04-17T12:11:18Z</time>
      </trkpt>
      <trkpt lat="59.210337469271" lon="17.912017034992">
        <ele>70.6</ele>
        <time>2020-04-17T12:11:19Z</time>
      </trkpt>
      <trkpt lat="59.21029815816" lon="17.911956601493">
        <ele>70.6</ele>
        <time>2020-04-17T12:11:20Z</time>
      </trkpt>
      <trkpt lat="59.210257841221" lon="17.911898934021">
        <ele>70.6</ele>
        <time>2020-04-17T12:11:21Z</time>
      </trkpt>
      <trkpt lat="59.210216769911" lon="17.911835483038">
        <ele>70.4</ele>
        <time>2020-04-17T12:11:22Z</time>
      </trkpt>
      <trkpt lat="59.21017410604" lon="17.911758872472">
        <ele>70.4</ele>
        <time>2020-04-17T12:11:23Z</time>
      </trkpt>
      <trkpt lat="59.210137393318" lon="17.911672035988">
        <ele>70.2</ele>
        <time>2020-04-17T12:11:24Z</time>
      </trkpt>
      <trkpt lat="59.210107386116" lon="17.911577739613">
        <ele>70.2</ele>
        <time>2020-04-17T12:11:25Z</time>
      </trkpt>
      <trkpt lat="59.210076708362" lon="17.911475983347">
        <ele>70.2</ele>
        <time>2020-04-17T12:11:26Z</time>
      </trkpt>
      <trkpt lat="59.210041923477" lon="17.911367773018">
        <ele>70</ele>
        <time>2020-04-17T12:11:27Z</time>
      </trkpt>
      <trkpt lat="59.210005546031" lon="17.91125780249">
        <ele>69.8</ele>
        <time>2020-04-17T12:11:28Z</time>
      </trkpt>
      <trkpt lat="59.209968581852" lon="17.911136684035">
        <ele>69.6</ele>
        <time>2020-04-17T12:11:29Z</time>
      </trkpt>
      <trkpt lat="59.209927929637" lon="17.911014559752">
        <ele>69.2</ele>
        <time>2020-04-17T12:11:30Z</time>
      </trkpt>
      <trkpt lat="59.209887193603" lon="17.910896710238">
        <ele>69</ele>
        <time>2020-04-17T12:11:31Z</time>
      </trkpt>
      <trkpt lat="59.209849558872" lon="17.910781123837">
        <ele>68.8</ele>
        <time>2020-04-17T12:11:32Z</time>
      </trkpt>
      <trkpt lat="59.209808319924" lon="17.910662017038">
        <ele>68</ele>
        <time>2020-04-17T12:11:33Z</time>
      </trkpt>
      <trkpt lat="59.209766913338" lon="17.910544838076">
        <ele>67.4</ele>
        <time>2020-04-17T12:11:34Z</time>
      </trkpt>
      <trkpt lat="59.209727266951" lon="17.910426653286">
        <ele>66.2</ele>
        <time>2020-04-17T12:11:35Z</time>
      </trkpt>
      <trkpt lat="59.209691057143" lon="17.910312491808">
        <ele>65.8</ele>
        <time>2020-04-17T12:11:36Z</time>
      </trkpt>
      <trkpt lat="59.209657445724" lon="17.910202102185">
        <ele>65.4</ele>
        <time>2020-04-17T12:11:37Z</time>
      </trkpt>
      <trkpt lat="59.209621487373" lon="17.910087353974">
        <ele>65.2</ele>
        <time>2020-04-17T12:11:38Z</time>
      </trkpt>
      <trkpt lat="59.209581338072" lon="17.909971013202">
        <ele>65</ele>
        <time>2020-04-17T12:11:39Z</time>
      </trkpt>
      <trkpt lat="59.209538255106" lon="17.909853331326">
        <ele>64.8</ele>
        <time>2020-04-17T12:11:40Z</time>
      </trkpt>
      <trkpt lat="59.209498273443" lon="17.909742941703">
        <ele>64.4</ele>
        <time>2020-04-17T12:11:41Z</time>
      </trkpt>
      <trkpt lat="59.209459716703" lon="17.909626433293">
        <ele>64.4</ele>
        <time>2020-04-17T12:11:42Z</time>
      </trkpt>
      <trkpt lat="59.209419818859" lon="17.909518893516">
        <ele>64.2</ele>
        <time>2020-04-17T12:11:43Z</time>
      </trkpt>
      <trkpt lat="59.209374975694" lon="17.909415628508">
        <ele>64</ele>
        <time>2020-04-17T12:11:44Z</time>
      </trkpt>
      <trkpt lat="59.209326444493" lon="17.909326277454">
        <ele>64</ele>
        <time>2020-04-17T12:11:45Z</time>
      </trkpt>
      <trkpt lat="59.209271710686" lon="17.909244134834">
        <ele>63.8</ele>
        <time>2020-04-17T12:11:46Z</time>
      </trkpt>
      <trkpt lat="59.209212366834" lon="17.909159477644">
        <ele>63.4</ele>
        <time>2020-04-17T12:11:47Z</time>
      </trkpt>
      <trkpt lat="59.209154615543" lon="17.909089824055">
        <ele>63.2</ele>
        <time>2020-04-17T12:11:48Z</time>
      </trkpt>
      <trkpt lat="59.209096445157" lon="17.909029306737">
        <ele>63</ele>
        <time>2020-04-17T12:11:49Z</time>
      </trkpt>
      <trkpt lat="59.209039112961" lon="17.908969795247">
        <ele>62.8</ele>
        <time>2020-04-17T12:11:50Z</time>
      </trkpt>
      <trkpt lat="59.208990414122" lon="17.908895280156">
        <ele>62.8</ele>
        <time>2020-04-17T12:11:51Z</time>
      </trkpt>
      <trkpt lat="59.208950432459" lon="17.908799810315">
        <ele>62.6</ele>
        <time>2020-04-17T12:11:52Z</time>
      </trkpt>
      <trkpt lat="59.208919419429" lon="17.908692019081">
        <ele>62.4</ele>
        <time>2020-04-17T12:11:53Z</time>
      </trkpt>
      <trkpt lat="59.208888993132" lon="17.908583557295">
        <ele>62.2</ele>
        <time>2020-04-17T12:11:54Z</time>
      </trkpt>
      <trkpt lat="59.208858483016" lon="17.90847920264">
        <ele>62</ele>
        <time>2020-04-17T12:11:55Z</time>
      </trkpt>
      <trkpt lat="59.208830571289" lon="17.908378955116">
        <ele>61.8</ele>
        <time>2020-04-17T12:11:56Z</time>
      </trkpt>
      <trkpt lat="59.208802156648" lon="17.908280635429">
        <ele>61.6</ele>
        <time>2020-04-17T12:11:57Z</time>
      </trkpt>
      <trkpt lat="59.208771478894" lon="17.908186087597">
        <ele>61.6</ele>
        <time>2020-04-17T12:11:58Z</time>
      </trkpt>
      <trkpt lat="59.208743148072" lon="17.908090617756">
        <ele>61.4</ele>
        <time>2020-04-17T12:11:59Z</time>
      </trkpt>
      <trkpt lat="59.208717834734" lon="17.907993471535">
        <ele>61.2</ele>
        <time>2020-04-17T12:12:00Z</time>
      </trkpt>
      <trkpt lat="59.208691012654" lon="17.907893643106">
        <ele>61</ele>
        <time>2020-04-17T12:12:01Z</time>
      </trkpt>
      <trkpt lat="59.208662346556" lon="17.907789707546">
        <ele>61</ele>
        <time>2020-04-17T12:12:02Z</time>
      </trkpt>
      <trkpt lat="59.20863016006" lon="17.907682251588">
        <ele>61</ele>
        <time>2020-04-17T12:12:03Z</time>
      </trkpt>
      <trkpt lat="59.208593782614" lon="17.907570437042">
        <ele>61</ele>
        <time>2020-04-17T12:12:04Z</time>
      </trkpt>
      <trkpt lat="59.208552962761" lon="17.907459879781">
        <ele>60.8</ele>
        <time>2020-04-17T12:12:05Z</time>
      </trkpt>
      <trkpt lat="59.208506694673" lon="17.907350076891">
        <ele>60.4</ele>
        <time>2020-04-17T12:12:06Z</time>
      </trkpt>
      <trkpt lat="59.208458917843" lon="17.907238597621">
        <ele>60.2</ele>
        <time>2020-04-17T12:12:07Z</time>
      </trkpt>
      <trkpt lat="59.208408961719" lon="17.907129549102">
        <ele>59.6</ele>
        <time>2020-04-17T12:12:08Z</time>
      </trkpt>
      <trkpt lat="59.208359508509" lon="17.907023182791">
        <ele>59.2</ele>
        <time>2020-04-17T12:12:09Z</time>
      </trkpt>
      <trkpt lat="59.208303768874" lon="17.906912709349">
        <ele>58.8</ele>
        <time>2020-04-17T12:12:10Z</time>
      </trkpt>
      <trkpt lat="59.208248364515" lon="17.906796620034">
        <ele>58.2</ele>
        <time>2020-04-17T12:12:11Z</time>
      </trkpt>
      <trkpt lat="59.208193379251" lon="17.906672148819">
        <ele>58</ele>
        <time>2020-04-17T12:12:12Z</time>
      </trkpt>
      <trkpt lat="59.208137807254" lon="17.906546001224">
        <ele>57.8</ele>
        <time>2020-04-17T12:12:13Z</time>
      </trkpt>
      <trkpt lat="59.208078295764" lon="17.90641809343">
        <ele>57.8</ele>
        <time>2020-04-17T12:12:14Z</time>
      </trkpt>
      <trkpt lat="59.208019371007" lon="17.906292616387">
        <ele>56.8</ele>
        <time>2020-04-17T12:12:15Z</time>
      </trkpt>
      <trkpt lat="59.207961452078" lon="17.906165965878">
        <ele>55</ele>
        <time>2020-04-17T12:12:16Z</time>
      </trkpt>
      <trkpt lat="59.207897414362" lon="17.906050547115">
        <ele>53.6</ele>
        <time>2020-04-17T12:12:17Z</time>
      </trkpt>
      <trkpt lat="59.207827090221" lon="17.905959352043">
        <ele>52.8</ele>
        <time>2020-04-17T12:12:18Z</time>
      </trkpt>
      <trkpt lat="59.207750395836" lon="17.905894392318">
        <ele>52.4</ele>
        <time>2020-04-17T12:12:19Z</time>
      </trkpt>
      <trkpt lat="59.207663056438" lon="17.905857092863">
        <ele>52.2</ele>
        <time>2020-04-17T12:12:20Z</time>
      </trkpt>
      <trkpt lat="59.207571693728" lon="17.905842759814">
        <ele>52</ele>
        <time>2020-04-17T12:12:21Z</time>
      </trkpt>
      <trkpt lat="59.207479157552" lon="17.905828342946">
        <ele>51.8</ele>
        <time>2020-04-17T12:12:22Z</time>
      </trkpt>
      <trkpt lat="59.20738293334" lon="17.905810070404">
        <ele>51.4</ele>
        <time>2020-04-17T12:12:23Z</time>
      </trkpt>
      <trkpt lat="59.207288720784" lon="17.905794060975">
        <ele>51.2</ele>
        <time>2020-04-17T12:12:24Z</time>
      </trkpt>
      <trkpt lat="59.207200794653" lon="17.90578190722">
        <ele>51</ele>
        <time>2020-04-17T12:12:25Z</time>
      </trkpt>
      <trkpt lat="59.207118652033" lon="17.905771765121">
        <ele>50.8</ele>
        <time>2020-04-17T12:12:26Z</time>
      </trkpt>
      <trkpt lat="59.20704346639" lon="17.905761203927">
        <ele>50.8</ele>
        <time>2020-04-17T12:12:27Z</time>
      </trkpt>
      <trkpt lat="59.206978590484" lon="17.905750223638">
        <ele>50.4</ele>
        <time>2020-04-17T12:12:28Z</time>
      </trkpt>
      <trkpt lat="59.206920503917" lon="17.905735303856">
        <ele>49.6</ele>
        <time>2020-04-17T12:12:29Z</time>
      </trkpt>
      <trkpt lat="59.206866273024" lon="17.905711415441">
        <ele>48</ele>
        <time>2020-04-17T12:12:30Z</time>
      </trkpt>
      <trkpt lat="59.206821262221" lon="17.905676965832">
        <ele>47</ele>
        <time>2020-04-17T12:12:31Z</time>
      </trkpt>
      <trkpt lat="59.206795529788" lon="17.905637319445">
        <ele>46.4</ele>
        <time>2020-04-17T12:12:32Z</time>
      </trkpt>
      <trkpt lat="59.206786728793" lon="17.905589207339">
        <ele>46</ele>
        <time>2020-04-17T12:12:33Z</time>
      </trkpt>
      <trkpt lat="59.206776754332" lon="17.905529528211">
        <ele>45.8</ele>
        <time>2020-04-17T12:12:34Z</time>
      </trkpt>
      <trkpt lat="59.20675512903" lon="17.905469932902">
        <ele>45.6</ele>
        <time>2020-04-17T12:12:35Z</time>
      </trkpt>
      <trkpt lat="59.206723613086" lon="17.905415953466">
        <ele>45.6</ele>
        <time>2020-04-17T12:12:36Z</time>
      </trkpt>
      <trkpt lat="59.20668472107" lon="17.90536616498">
        <ele>45.4</ele>
        <time>2020-04-17T12:12:37Z</time>
      </trkpt>
      <trkpt lat="59.206643314484" lon="17.905323165833">
        <ele>45.2</ele>
        <time>2020-04-17T12:12:38Z</time>
      </trkpt>
      <trkpt lat="59.206598471319" lon="17.90527899322">
        <ele>45.2</ele>
        <time>2020-04-17T12:12:39Z</time>
      </trkpt>
      <trkpt lat="59.206556561819" lon="17.905228366544">
        <ele>45.2</ele>
        <time>2020-04-17T12:12:40Z</time>
      </trkpt>
      <trkpt lat="59.206521609296" lon="17.90517086671">
        <ele>45</ele>
        <time>2020-04-17T12:12:41Z</time>
      </trkpt>
      <trkpt lat="59.206491350637" lon="17.905106745175">
        <ele>45</ele>
        <time>2020-04-17T12:12:42Z</time>
      </trkpt>
      <trkpt lat="59.206464360919" lon="17.905032649179">
        <ele>45</ele>
        <time>2020-04-17T12:12:43Z</time>
      </trkpt>
      <trkpt lat="59.206440388685" lon="17.904950674197">
        <ele>44.8</ele>
        <time>2020-04-17T12:12:44Z</time>
      </trkpt>
      <trkpt lat="59.206418595745" lon="17.90486744193">
        <ele>44.4</ele>
        <time>2020-04-17T12:12:45Z</time>
      </trkpt>
      <trkpt lat="59.206396132253" lon="17.904787478604">
        <ele>44.2</ele>
        <time>2020-04-17T12:12:46Z</time>
      </trkpt>
      <trkpt lat="59.206372830571" lon="17.904708940201">
        <ele>44.2</ele>
        <time>2020-04-17T12:12:47Z</time>
      </trkpt>
      <trkpt lat="59.206348942156" lon="17.90462939597">
        <ele>44</ele>
        <time>2020-04-17T12:12:48Z</time>
      </trkpt>
      <trkpt lat="59.206324634646" lon="17.904550019377">
        <ele>43.8</ele>
        <time>2020-04-17T12:12:49Z</time>
      </trkpt>
      <trkpt lat="59.206309463407" lon="17.904467206205">
        <ele>43.8</ele>
        <time>2020-04-17T12:12:50Z</time>
      </trkpt>
      <trkpt lat="59.206316588022" lon="17.904393696942">
        <ele>43.8</ele>
        <time>2020-04-17T12:12:51Z</time>
      </trkpt>
      <trkpt lat="59.20634106317" lon="17.904343237904">
        <ele>43.8</ele>
        <time>2020-04-17T12:12:52Z</time>
      </trkpt>
      <trkpt lat="59.20637123801" lon="17.904306776639">
        <ele>43.8</ele>
        <time>2020-04-17T12:12:53Z</time>
      </trkpt>
      <trkpt lat="59.206406106714" lon="17.904270902107">
        <ele>43.8</ele>
        <time>2020-04-17T12:12:54Z</time>
      </trkpt>
      <trkpt lat="59.206439047581" lon="17.904243409475">
        <ele>43.8</ele>
        <time>2020-04-17T12:12:55Z</time>
      </trkpt>
      <trkpt lat="59.206468635688" lon="17.904210552427">
        <ele>43.8</ele>
        <time>2020-04-17T12:12:56Z</time>
      </trkpt>
      <trkpt lat="59.206496379777" lon="17.904173923524">
        <ele>43.8</ele>
        <time>2020-04-17T12:12:57Z</time>
      </trkpt>
      <trkpt lat="59.206525045875" lon="17.904139306277">
        <ele>43.8</ele>
        <time>2020-04-17T12:12:58Z</time>
      </trkpt>
      <trkpt lat="59.20655061067" lon="17.904100665718">
        <ele>44</ele>
        <time>2020-04-17T12:12:59Z</time>
      </trkpt>
      <trkpt lat="59.206565362814" lon="17.904048697938">
        <ele>44</ele>
        <time>2020-04-17T12:13:00Z</time>
      </trkpt>
      <trkpt lat="59.206564105529" lon="17.903990192276">
        <ele>44.2</ele>
        <time>2020-04-17T12:13:01Z</time>
      </trkpt>
      <trkpt lat="59.206555723629" lon="17.903936967211">
        <ele>44.2</ele>
        <time>2020-04-17T12:13:02Z</time>
      </trkpt>
      <trkpt lat="59.206543234598" lon="17.90388424506">
        <ele>44.2</ele>
        <time>2020-04-17T12:13:03Z</time>
      </trkpt>
      <trkpt lat="59.206528566273" lon="17.903829846529">
        <ele>44.4</ele>
        <time>2020-04-17T12:13:04Z</time>
      </trkpt>
      <trkpt lat="59.206516663975" lon="17.903776034731">
        <ele>44.4</ele>
        <time>2020-04-17T12:13:05Z</time>
      </trkpt>
      <trkpt lat="59.20650451022" lon="17.903725910969">
        <ele>44.4</ele>
        <time>2020-04-17T12:13:06Z</time>
      </trkpt>
      <trkpt lat="59.206491266818" lon="17.90368727041">
        <ele>44.4</ele>
        <time>2020-04-17T12:13:07Z</time>
      </trkpt>
      <trkpt lat="59.206478107235" lon="17.903655000095">
        <ele>44.6</ele>
        <time>2020-04-17T12:13:08Z</time>
      </trkpt>
      <trkpt lat="59.206470814982" lon="17.903632201327">
        <ele>44.6</ele>
        <time>2020-04-17T12:13:09Z</time>
      </trkpt>
      <trkpt lat="59.206469138602" lon="17.90361686245">
        <ele>44.6</ele>
        <time>2020-04-17T12:13:10Z</time>
      </trkpt>
      <trkpt lat="59.206461846349" lon="17.903606468894">
        <ele>44.6</ele>
        <time>2020-04-17T12:13:11Z</time>
      </trkpt>
      <trkpt lat="59.206456314295" lon="17.903598841365">
        <ele>44.6</ele>
        <time>2020-04-17T12:13:12Z</time>
      </trkpt>
      <trkpt lat="59.206452207164" lon="17.903580736461">
        <ele>44.6</ele>
        <time>2020-04-17T12:13:13Z</time>
      </trkpt>
      <trkpt lat="59.206441729789" lon="17.903568834163">
        <ele>44.6</ele>
        <time>2020-04-17T12:13:14Z</time>
      </trkpt>
      <trkpt lat="59.206428151111" lon="17.903553243829">
        <ele>44.6</ele>
        <time>2020-04-17T12:13:15Z</time>
      </trkpt>
      <trkpt lat="59.206418428107" lon="17.903539413694">
        <ele>44.6</ele>
        <time>2020-04-17T12:13:16Z</time>
      </trkpt>
      <trkpt lat="59.20641147113" lon="17.903532959631">
        <ele>44.6</ele>
        <time>2020-04-17T12:13:17Z</time>
      </trkpt>
      <trkpt lat="59.206402334859" lon="17.90352717612">
        <ele>44.8</ele>
        <time>2020-04-17T12:13:18Z</time>
      </trkpt>
      <trkpt lat="59.206397138081" lon="17.903519716229">
        <ele>44.8</ele>
        <time>2020-04-17T12:13:19Z</time>
      </trkpt>
      <trkpt lat="59.206397138081" lon="17.903510663777">
        <ele>44.8</ele>
        <time>2020-04-17T12:13:20Z</time>
      </trkpt>
      <trkpt lat="59.206381547747" lon="17.903447464251">
        <ele>45.2</ele>
        <time>2020-04-17T12:13:35Z</time>
      </trkpt>
      <trkpt lat="59.206374674589" lon="17.90341904961">
        <ele>45.4</ele>
        <time>2020-04-17T12:13:36Z</time>
      </trkpt>
      <trkpt lat="59.20636704706" lon="17.903393400996">
        <ele>45.4</ele>
        <time>2020-04-17T12:13:37Z</time>
      </trkpt>
      <trkpt lat="59.206359754807" lon="17.903368674391">
        <ele>45.4</ele>
        <time>2020-04-17T12:13:38Z</time>
      </trkpt>
      <trkpt lat="59.206352211097" lon="17.90334361251">
        <ele>45.4</ele>
        <time>2020-04-17T12:13:39Z</time>
      </trkpt>
      <trkpt lat="59.206344751206" lon="17.903319137362">
        <ele>45.4</ele>
        <time>2020-04-17T12:13:40Z</time>
      </trkpt>
      <trkpt lat="59.206337542772" lon="17.903294075481">
        <ele>45.4</ele>
        <time>2020-04-17T12:13:41Z</time>
      </trkpt>
      <trkpt lat="59.206331423985" lon="17.903274378016">
        <ele>45.4</ele>
        <time>2020-04-17T12:13:42Z</time>
      </trkpt>
      <trkpt lat="59.206326562483" lon="17.903252920352">
        <ele>45.4</ele>
        <time>2020-04-17T12:13:43Z</time>
      </trkpt>
      <trkpt lat="59.206357575513" lon="17.903097771383">
        <ele>41.2</ele>
        <time>2020-04-17T12:28:58Z</time>
      </trkpt>
      <trkpt lat="59.206361095911" lon="17.903081845773">
        <ele>40.8</ele>
        <time>2020-04-17T12:29:00Z</time>
      </trkpt>
      <trkpt lat="59.206353971296" lon="17.903054101684">
        <ele>40.8</ele>
        <time>2020-04-17T12:29:01Z</time>
      </trkpt>
      <trkpt lat="59.206366376508" lon="17.903034823314">
        <ele>40.8</ele>
        <time>2020-04-17T12:29:02Z</time>
      </trkpt>
      <trkpt lat="59.206383727041" lon="17.903021412274">
        <ele>40.8</ele>
        <time>2020-04-17T12:29:03Z</time>
      </trkpt>
      <trkpt lat="59.206417506098" lon="17.903015628763">
        <ele>40.8</ele>
        <time>2020-04-17T12:29:04Z</time>
      </trkpt>
      <trkpt lat="59.206441981246" lon="17.903009426157">
        <ele>40.8</ele>
        <time>2020-04-17T12:29:05Z</time>
      </trkpt>
      <trkpt lat="59.206489506619" lon="17.903000373705">
        <ele>40.8</ele>
        <time>2020-04-17T12:29:06Z</time>
      </trkpt>
      <trkpt lat="59.206538959829" lon="17.902983526086">
        <ele>40.8</ele>
        <time>2020-04-17T12:29:07Z</time>
      </trkpt>
      <trkpt lat="59.206569553764" lon="17.902958128929">
        <ele>40.8</ele>
        <time>2020-04-17T12:29:08Z</time>
      </trkpt>
      <trkpt lat="59.206599141871" lon="17.902928876098">
        <ele>41</ele>
        <time>2020-04-17T12:29:09Z</time>
      </trkpt>
      <trkpt lat="59.206616240947" lon="17.902894677946">
        <ele>41</ele>
        <time>2020-04-17T12:29:10Z</time>
      </trkpt>
      <trkpt lat="59.206646834882" lon="17.902856372663">
        <ele>41</ele>
        <time>2020-04-17T12:29:11Z</time>
      </trkpt>
      <trkpt lat="59.206675752437" lon="17.902815971905">
        <ele>41</ele>
        <time>2020-04-17T12:29:12Z</time>
      </trkpt>
      <trkpt lat="59.206701065775" lon="17.902773056577">
        <ele>41.2</ele>
        <time>2020-04-17T12:29:13Z</time>
      </trkpt>
      <trkpt lat="59.206723445448" lon="17.90273341019">
        <ele>41.2</ele>
        <time>2020-04-17T12:29:14Z</time>
      </trkpt>
      <trkpt lat="59.2067492617" lon="17.902696781287">
        <ele>41.4</ele>
        <time>2020-04-17T12:29:15Z</time>
      </trkpt>
      <trkpt lat="59.206776251418" lon="17.902663421325">
        <ele>41.4</ele>
        <time>2020-04-17T12:29:16Z</time>
      </trkpt>
      <trkpt lat="59.206803241136" lon="17.902623523481">
        <ele>41.6</ele>
        <time>2020-04-17T12:29:17Z</time>
      </trkpt>
      <trkpt lat="59.20684732993" lon="17.902572896805">
        <ele>41.8</ele>
        <time>2020-04-17T12:29:18Z</time>
      </trkpt>
      <trkpt lat="59.206879348788" lon="17.902540207395">
        <ele>42</ele>
        <time>2020-04-17T12:29:19Z</time>
      </trkpt>
      <trkpt lat="59.206909942723" lon="17.902513385315">
        <ele>42</ele>
        <time>2020-04-17T12:29:20Z</time>
      </trkpt>
      <trkpt lat="59.206944811427" lon="17.902477846059">
        <ele>42</ele>
        <time>2020-04-17T12:29:21Z</time>
      </trkpt>
      <trkpt lat="59.206974315715" lon="17.902447922676">
        <ele>42</ele>
        <time>2020-04-17T12:29:22Z</time>
      </trkpt>
      <trkpt lat="59.207001640709" lon="17.902418334569">
        <ele>42</ele>
        <time>2020-04-17T12:29:23Z</time>
      </trkpt>
      <trkpt lat="59.207029636255" lon="17.902393859421">
        <ele>42</ele>
        <time>2020-04-17T12:29:24Z</time>
      </trkpt>
      <trkpt lat="59.207061319837" lon="17.902372234119">
        <ele>42.2</ele>
        <time>2020-04-17T12:29:25Z</time>
      </trkpt>
      <trkpt lat="59.207089399202" lon="17.90234951917">
        <ele>42.2</ele>
        <time>2020-04-17T12:29:26Z</time>
      </trkpt>
      <trkpt lat="59.20711387435" lon="17.902322361814">
        <ele>42.2</ele>
        <time>2020-04-17T12:29:27Z</time>
      </trkpt>
      <trkpt lat="59.207137008394" lon="17.902297383752">
        <ele>42.2</ele>
        <time>2020-04-17T12:29:28Z</time>
      </trkpt>
      <trkpt lat="59.207155364755" lon="17.902273160061">
        <ele>42.4</ele>
        <time>2020-04-17T12:29:29Z</time>
      </trkpt>
      <trkpt lat="59.207171458003" lon="17.902251953854">
        <ele>42.4</ele>
        <time>2020-04-17T12:29:30Z</time>
      </trkpt>
      <trkpt lat="59.207190484916" lon="17.90223301076">
        <ele>42.4</ele>
        <time>2020-04-17T12:29:31Z</time>
      </trkpt>
      <trkpt lat="59.20721194258" lon="17.902214654399">
        <ele>42.6</ele>
        <time>2020-04-17T12:29:32Z</time>
      </trkpt>
      <trkpt lat="59.207231556226" lon="17.902199650798">
        <ele>42.6</ele>
        <time>2020-04-17T12:29:33Z</time>
      </trkpt>
      <trkpt lat="59.207251002234" lon="17.90218691031">
        <ele>42.8</ele>
        <time>2020-04-17T12:29:34Z</time>
      </trkpt>
      <trkpt lat="59.207270532061" lon="17.902178360772">
        <ele>43</ele>
        <time>2020-04-17T12:29:35Z</time>
      </trkpt>
      <trkpt lat="59.20728989425" lon="17.902171571433">
        <ele>43.2</ele>
        <time>2020-04-17T12:29:36Z</time>
      </trkpt>
      <trkpt lat="59.207306238955" lon="17.902163692447">
        <ele>43.8</ele>
        <time>2020-04-17T12:29:37Z</time>
      </trkpt>
      <trkpt lat="59.207316464873" lon="17.902145419905">
        <ele>44.2</ele>
        <time>2020-04-17T12:29:38Z</time>
      </trkpt>
      <trkpt lat="59.207323086574" lon="17.902129578114">
        <ele>44.6</ele>
        <time>2020-04-17T12:29:39Z</time>
      </trkpt>
      <trkpt lat="59.20733431832" lon="17.902122704956">
        <ele>45</ele>
        <time>2020-04-17T12:29:40Z</time>
      </trkpt>
      <trkpt lat="59.207344208962" lon="17.90211734054">
        <ele>45.4</ele>
        <time>2020-04-17T12:29:41Z</time>
      </trkpt>
      <trkpt lat="59.207358206735" lon="17.90211566416">
        <ele>46</ele>
        <time>2020-04-17T12:29:42Z</time>
      </trkpt>
      <trkpt lat="59.20737371325" lon="17.902110132106">
        <ele>46.2</ele>
        <time>2020-04-17T12:29:43Z</time>
      </trkpt>
      <trkpt lat="59.207386956652" lon="17.9021123114">
        <ele>46.2</ele>
        <time>2020-04-17T12:29:44Z</time>
      </trkpt>
      <trkpt lat="59.207397517846" lon="17.902113065771">
        <ele>46.4</ele>
        <time>2020-04-17T12:29:45Z</time>
      </trkpt>
      <trkpt lat="59.20740891723" lon="17.902110802658">
        <ele>46.4</ele>
        <time>2020-04-17T12:29:46Z</time>
      </trkpt>
      <trkpt lat="59.207421825356" lon="17.902114658332">
        <ele>46.6</ele>
        <time>2020-04-17T12:29:47Z</time>
      </trkpt>
      <trkpt lat="59.207434649663" lon="17.902124297517">
        <ele>46.8</ele>
        <time>2020-04-17T12:29:48Z</time>
      </trkpt>
      <trkpt lat="59.207447222513" lon="17.902130500123">
        <ele>47</ele>
        <time>2020-04-17T12:29:49Z</time>
      </trkpt>
      <trkpt lat="59.207456945517" lon="17.902127901734">
        <ele>47.2</ele>
        <time>2020-04-17T12:29:50Z</time>
      </trkpt>
      <trkpt lat="59.207467003797" lon="17.902124968069">
        <ele>47.6</ele>
        <time>2020-04-17T12:29:51Z</time>
      </trkpt>
      <trkpt lat="59.207480331018" lon="17.902131003037">
        <ele>48</ele>
        <time>2020-04-17T12:29:52Z</time>
      </trkpt>
      <trkpt lat="59.207495837533" lon="17.90213829529">
        <ele>48.4</ele>
        <time>2020-04-17T12:29:53Z</time>
      </trkpt>
      <trkpt lat="59.207508494202" lon="17.902138462928">
        <ele>48.4</ele>
        <time>2020-04-17T12:29:54Z</time>
      </trkpt>
      <trkpt lat="59.207525006545" lon="17.902137121824">
        <ele>48.8</ele>
        <time>2020-04-17T12:29:55Z</time>
      </trkpt>
      <trkpt lat="59.207541267431" lon="17.902139049661">
        <ele>49</ele>
        <time>2020-04-17T12:29:56Z</time>
      </trkpt>
      <trkpt lat="59.207556354851" lon="17.902144414077">
        <ele>49.4</ele>
        <time>2020-04-17T12:29:57Z</time>
      </trkpt>
      <trkpt lat="59.20757236428" lon="17.902143743525">
        <ele>49.6</ele>
        <time>2020-04-17T12:29:58Z</time>
      </trkpt>
      <trkpt lat="59.207590133908" lon="17.902128153191">
        <ele>50.2</ele>
        <time>2020-04-17T12:29:59Z</time>
      </trkpt>
      <trkpt lat="59.207613519409" lon="17.902115245065">
        <ele>50.6</ele>
        <time>2020-04-17T12:30:00Z</time>
      </trkpt>
      <trkpt lat="59.207631456675" lon="17.902095631419">
        <ele>51</ele>
        <time>2020-04-17T12:30:01Z</time>
      </trkpt>
      <trkpt lat="59.207645538267" lon="17.902069815167">
        <ele>51.2</ele>
        <time>2020-04-17T12:30:02Z</time>
      </trkpt>
      <trkpt lat="59.207662721162" lon="17.902045591476">
        <ele>51.4</ele>
        <time>2020-04-17T12:30:03Z</time>
      </trkpt>
      <trkpt lat="59.207678311496" lon="17.902022205975">
        <ele>51.6</ele>
        <time>2020-04-17T12:30:04Z</time>
      </trkpt>
      <trkpt lat="59.207695829667" lon="17.901998149922">
        <ele>51.8</ele>
        <time>2020-04-17T12:30:05Z</time>
      </trkpt>
      <trkpt lat="59.207709240707" lon="17.901975099697">
        <ele>52.2</ele>
        <time>2020-04-17T12:30:06Z</time>
      </trkpt>
      <trkpt lat="59.207725333955" lon="17.901947607065">
        <ele>52.4</ele>
        <time>2020-04-17T12:30:07Z</time>
      </trkpt>
      <trkpt lat="59.207739918461" lon="17.901923131917">
        <ele>52.8</ele>
        <time>2020-04-17T12:30:08Z</time>
      </trkpt>
      <trkpt lat="59.207759448288" lon="17.901909553239">
        <ele>53</ele>
        <time>2020-04-17T12:30:09Z</time>
      </trkpt>
      <trkpt lat="59.207779983943" lon="17.90189605838">
        <ele>53.2</ele>
        <time>2020-04-17T12:30:10Z</time>
      </trkpt>
      <trkpt lat="59.207798088847" lon="17.9018608544">
        <ele>53.2</ele>
        <time>2020-04-17T12:30:11Z</time>
      </trkpt>
      <trkpt lat="59.207815104104" lon="17.901829589913">
        <ele>53.2</ele>
        <time>2020-04-17T12:30:12Z</time>
      </trkpt>
      <trkpt lat="59.207833795741" lon="17.901798660702">
        <ele>53.2</ele>
        <time>2020-04-17T12:30:13Z</time>
      </trkpt>
      <trkpt lat="59.207848044971" lon="17.901772509174">
        <ele>53.4</ele>
        <time>2020-04-17T12:30:14Z</time>
      </trkpt>
      <trkpt lat="59.207863635305" lon="17.901745519456">
        <ele>53.4</ele>
        <time>2020-04-17T12:30:15Z</time>
      </trkpt>
      <trkpt lat="59.207881069657" lon="17.901715176978">
        <ele>53.4</ele>
        <time>2020-04-17T12:30:16Z</time>
      </trkpt>
      <trkpt lat="59.207901605312" lon="17.901692294391">
        <ele>53.6</ele>
        <time>2020-04-17T12:30:17Z</time>
      </trkpt>
      <trkpt lat="59.207921554234" lon="17.901662790103">
        <ele>53.8</ele>
        <time>2020-04-17T12:30:18Z</time>
      </trkpt>
      <trkpt lat="59.207937982758" lon="17.901625909743">
        <ele>53.8</ele>
        <time>2020-04-17T12:30:19Z</time>
      </trkpt>
      <trkpt lat="59.207957009671" lon="17.901580396026">
        <ele>54</ele>
        <time>2020-04-17T12:30:20Z</time>
      </trkpt>
      <trkpt lat="59.207978215878" lon="17.901534127938">
        <ele>54</ele>
        <time>2020-04-17T12:30:21Z</time>
      </trkpt>
      <trkpt lat="59.208000511732" lon="17.901489620049">
        <ele>54.4</ele>
        <time>2020-04-17T12:30:22Z</time>
      </trkpt>
      <trkpt lat="59.208031105667" lon="17.901434550966">
        <ele>54.8</ele>
        <time>2020-04-17T12:30:23Z</time>
      </trkpt>
      <trkpt lat="59.208058598299" lon="17.90137973334">
        <ele>55</ele>
        <time>2020-04-17T12:30:24Z</time>
      </trkpt>
      <trkpt lat="59.208087767311" lon="17.90133614746">
        <ele>55.2</ele>
        <time>2020-04-17T12:30:25Z</time>
      </trkpt>
      <trkpt lat="59.208120875816" lon="17.901313181054">
        <ele>55.6</ele>
        <time>2020-04-17T12:30:26Z</time>
      </trkpt>
      <trkpt lat="59.208151637389" lon="17.901315444167">
        <ele>55.6</ele>
        <time>2020-04-17T12:30:27Z</time>
      </trkpt>
      <trkpt lat="59.2081825666" lon="17.901336734193">
        <ele>55.8</ele>
        <time>2020-04-17T12:30:28Z</time>
      </trkpt>
      <trkpt lat="59.208217602942" lon="17.901366238481">
        <ele>55.8</ele>
        <time>2020-04-17T12:30:29Z</time>
      </trkpt>
      <trkpt lat="59.208260015356" lon="17.901394234027">
        <ele>55.8</ele>
        <time>2020-04-17T12:30:30Z</time>
      </trkpt>
      <trkpt lat="59.208294381146" lon="17.901419044451">
        <ele>55.8</ele>
        <time>2020-04-17T12:30:31Z</time>
      </trkpt>
      <trkpt lat="59.208327657289" lon="17.901439747744">
        <ele>55.8</ele>
        <time>2020-04-17T12:30:32Z</time>
      </trkpt>
      <trkpt lat="59.20836193926" lon="17.901458439381">
        <ele>56</ele>
        <time>2020-04-17T12:30:33Z</time>
      </trkpt>
      <trkpt lat="59.208395634498" lon="17.901472856249">
        <ele>56</ele>
        <time>2020-04-17T12:30:34Z</time>
      </trkpt>
      <trkpt lat="59.208430084107" lon="17.901481489606">
        <ele>56</ele>
        <time>2020-04-17T12:30:35Z</time>
      </trkpt>
      <trkpt lat="59.208462186784" lon="17.901466234548">
        <ele>56</ele>
        <time>2020-04-17T12:30:36Z</time>
      </trkpt>
      <trkpt lat="59.208489176502" lon="17.901423486858">
        <ele>56</ele>
        <time>2020-04-17T12:30:37Z</time>
      </trkpt>
      <trkpt lat="59.208509795976" lon="17.901365819386">
        <ele>55.8</ele>
        <time>2020-04-17T12:30:38Z</time>
      </trkpt>
      <trkpt lat="59.208527817061" lon="17.901303793326">
        <ele>55.8</ele>
        <time>2020-04-17T12:30:39Z</time>
      </trkpt>
      <trkpt lat="59.208543994128" lon="17.901242940732">
        <ele>55.8</ele>
        <time>2020-04-17T12:30:40Z</time>
      </trkpt>
      <trkpt lat="59.208562099032" lon="17.901185524717">
        <ele>55.8</ele>
        <time>2020-04-17T12:30:41Z</time>
      </trkpt>
      <trkpt lat="59.208578946651" lon="17.901125342675">
        <ele>55.8</ele>
        <time>2020-04-17T12:30:42Z</time>
      </trkpt>
      <trkpt lat="59.208594872261" lon="17.901067759022">
        <ele>55.6</ele>
        <time>2020-04-17T12:30:43Z</time>
      </trkpt>
      <trkpt lat="59.208612641889" lon="17.901009420998">
        <ele>55.6</ele>
        <time>2020-04-17T12:30:44Z</time>
      </trkpt>
      <trkpt lat="59.2086351892" lon="17.90094387454">
        <ele>55.4</ele>
        <time>2020-04-17T12:30:45Z</time>
      </trkpt>
      <trkpt lat="59.208658993796" lon="17.900869443268">
        <ele>55.2</ele>
        <time>2020-04-17T12:30:46Z</time>
      </trkpt>
      <trkpt lat="59.208688917179" lon="17.900788725571">
        <ele>55.2</ele>
        <time>2020-04-17T12:30:47Z</time>
      </trkpt>
      <trkpt lat="59.208726048996" lon="17.900714629575">
        <ele>55</ele>
        <time>2020-04-17T12:30:48Z</time>
      </trkpt>
      <trkpt lat="59.208765695383" lon="17.900642880511">
        <ele>54.8</ele>
        <time>2020-04-17T12:30:49Z</time>
      </trkpt>
      <trkpt lat="59.208801737553" lon="17.900566102307">
        <ele>54.8</ele>
        <time>2020-04-17T12:30:50Z</time>
      </trkpt>
      <trkpt lat="59.208831912393" lon="17.900484127325">
        <ele>54.6</ele>
        <time>2020-04-17T12:30:51Z</time>
      </trkpt>
      <trkpt lat="59.208856303722" lon="17.900394943909">
        <ele>54.2</ele>
        <time>2020-04-17T12:30:52Z</time>
      </trkpt>
      <trkpt lat="59.208870552952" lon="17.90030349738">
        <ele>54</ele>
        <time>2020-04-17T12:30:53Z</time>
      </trkpt>
      <trkpt lat="59.208878934852" lon="17.900207440806">
        <ele>53.6</ele>
        <time>2020-04-17T12:30:54Z</time>
      </trkpt>
      <trkpt lat="59.208885472734" lon="17.900108953481">
        <ele>53</ele>
        <time>2020-04-17T12:30:55Z</time>
      </trkpt>
      <trkpt lat="59.208893938453" lon="17.900009879423">
        <ele>52.4</ele>
        <time>2020-04-17T12:30:56Z</time>
      </trkpt>
      <trkpt lat="59.208899889602" lon="17.899907368786">
        <ele>51.8</ele>
        <time>2020-04-17T12:30:57Z</time>
      </trkpt>
      <trkpt lat="59.208905254018" lon="17.899798823181">
        <ele>51.4</ele>
        <time>2020-04-17T12:30:58Z</time>
      </trkpt>
      <trkpt lat="59.208910786072" lon="17.899686505721">
        <ele>51.2</ele>
        <time>2020-04-17T12:30:59Z</time>
      </trkpt>
      <trkpt lat="59.208915479936" lon="17.899571925148">
        <ele>51</ele>
        <time>2020-04-17T12:31:00Z</time>
      </trkpt>
      <trkpt lat="59.208922856008" lon="17.899457260756">
        <ele>50.8</ele>
        <time>2020-04-17T12:31:01Z</time>
      </trkpt>
      <trkpt lat="59.208930064442" lon="17.899338824509">
        <ele>50.6</ele>
        <time>2020-04-17T12:31:02Z</time>
      </trkpt>
      <trkpt lat="59.208935428858" lon="17.899220472081">
        <ele>50.4</ele>
        <time>2020-04-17T12:31:03Z</time>
      </trkpt>
      <trkpt lat="59.208939535989" lon="17.899101952015">
        <ele>50.4</ele>
        <time>2020-04-17T12:31:04Z</time>
      </trkpt>
      <trkpt lat="59.208942553473" lon="17.898982007026">
        <ele>50</ele>
        <time>2020-04-17T12:31:05Z</time>
      </trkpt>
      <trkpt lat="59.208942302016" lon="17.898864744245">
        <ele>49.6</ele>
        <time>2020-04-17T12:31:06Z</time>
      </trkpt>
      <trkpt lat="59.208937608152" lon="17.898749660758">
        <ele>49.4</ele>
        <time>2020-04-17T12:31:07Z</time>
      </trkpt>
      <trkpt lat="59.208929980623" lon="17.898638265307">
        <ele>49</ele>
        <time>2020-04-17T12:31:08Z</time>
      </trkpt>
      <trkpt lat="59.208919084153" lon="17.898529552064">
        <ele>48.8</ele>
        <time>2020-04-17T12:31:09Z</time>
      </trkpt>
      <trkpt lat="59.208907014217" lon="17.898424778314">
        <ele>48.6</ele>
        <time>2020-04-17T12:31:10Z</time>
      </trkpt>
      <trkpt lat="59.208894860462" lon="17.898320591297">
        <ele>48.4</ele>
        <time>2020-04-17T12:31:11Z</time>
      </trkpt>
      <trkpt lat="59.208880192137" lon="17.898218332117">
        <ele>48.2</ele>
        <time>2020-04-17T12:31:12Z</time>
      </trkpt>
      <trkpt lat="59.208861668138" lon="17.898122191724">
        <ele>48</ele>
        <time>2020-04-17T12:31:13Z</time>
      </trkpt>
      <trkpt lat="59.208842641225" lon="17.898028314444">
        <ele>48</ele>
        <time>2020-04-17T12:31:14Z</time>
      </trkpt>
      <trkpt lat="59.208826212701" lon="17.89793728701">
        <ele>47.8</ele>
        <time>2020-04-17T12:31:15Z</time>
      </trkpt>
      <trkpt lat="59.208808862168" lon="17.897848690327">
        <ele>47.8</ele>
        <time>2020-04-17T12:31:16Z</time>
      </trkpt>
      <trkpt lat="59.20879025435" lon="17.897764368413">
        <ele>47.6</ele>
        <time>2020-04-17T12:31:17Z</time>
      </trkpt>
      <trkpt lat="59.208774496378" lon="17.897683818354">
        <ele>47.6</ele>
        <time>2020-04-17T12:31:18Z</time>
      </trkpt>
      <trkpt lat="59.208763264632" lon="17.89760620196">
        <ele>47.6</ele>
        <time>2020-04-17T12:31:19Z</time>
      </trkpt>
      <trkpt lat="59.208757481121" lon="17.897523137331">
        <ele>47.6</ele>
        <time>2020-04-17T12:31:20Z</time>
      </trkpt>
      <trkpt lat="59.208759911872" lon="17.897451723543">
        <ele>47.6</ele>
        <time>2020-04-17T12:31:21Z</time>
      </trkpt>
      <trkpt lat="59.208769970152" lon="17.897393469338">
        <ele>47.8</ele>
        <time>2020-04-17T12:31:22Z</time>
      </trkpt>
      <trkpt lat="59.208791595454" lon="17.897351811295">
        <ele>47.8</ele>
        <time>2020-04-17T12:31:23Z</time>
      </trkpt>
      <trkpt lat="59.208822021751" lon="17.897334796038">
        <ele>47.8</ele>
        <time>2020-04-17T12:31:24Z</time>
      </trkpt>
      <trkpt lat="59.20885479498" lon="17.897335131314">
        <ele>48.2</ele>
        <time>2020-04-17T12:31:25Z</time>
      </trkpt>
      <trkpt lat="59.208890501874" lon="17.897342842662">
        <ele>48.4</ele>
        <time>2020-04-17T12:31:26Z</time>
      </trkpt>
      <trkpt lat="59.208927298415" lon="17.897350973105">
        <ele>48.4</ele>
        <time>2020-04-17T12:31:27Z</time>
      </trkpt>
      <trkpt lat="59.208965184603" lon="17.897352733304">
        <ele>48.4</ele>
        <time>2020-04-17T12:31:28Z</time>
      </trkpt>
      <trkpt lat="59.209003825162" lon="17.897346865974">
        <ele>48.6</ele>
        <time>2020-04-17T12:31:29Z</time>
      </trkpt>
      <trkpt lat="59.209042717178" lon="17.897337394427">
        <ele>48.8</ele>
        <time>2020-04-17T12:31:30Z</time>
      </trkpt>
      <trkpt lat="59.209080938642" lon="17.897326162681">
        <ele>49</ele>
        <time>2020-04-17T12:31:31Z</time>
      </trkpt>
      <trkpt lat="59.209119327744" lon="17.897314847116">
        <ele>49.2</ele>
        <time>2020-04-17T12:31:32Z</time>
      </trkpt>
      <trkpt lat="59.209158555036" lon="17.897304872655">
        <ele>49.4</ele>
        <time>2020-04-17T12:31:33Z</time>
      </trkpt>
      <trkpt lat="59.209196608862" lon="17.897292215986">
        <ele>49.6</ele>
        <time>2020-04-17T12:31:34Z</time>
      </trkpt>
      <trkpt lat="59.209233824498" lon="17.89727092596">
        <ele>49.6</ele>
        <time>2020-04-17T12:31:35Z</time>
      </trkpt>
      <trkpt lat="59.209269363754" lon="17.897238823283">
        <ele>49.6</ele>
        <time>2020-04-17T12:31:36Z</time>
      </trkpt>
      <trkpt lat="59.209300795879" lon="17.897196494688">
        <ele>49.8</ele>
        <time>2020-04-17T12:31:37Z</time>
      </trkpt>
      <trkpt lat="59.209329461977" lon="17.89714855022">
        <ele>50</ele>
        <time>2020-04-17T12:31:38Z</time>
      </trkpt>
      <trkpt lat="59.209356535514" lon="17.897106221625">
        <ele>50</ele>
        <time>2020-04-17T12:31:39Z</time>
      </trkpt>
      <trkpt lat="59.209385201612" lon="17.897068251618">
        <ele>50.2</ele>
        <time>2020-04-17T12:31:40Z</time>
      </trkpt>
      <trkpt lat="59.209416047004" lon="17.89703539457">
        <ele>50.2</ele>
        <time>2020-04-17T12:31:41Z</time>
      </trkpt>
      <trkpt lat="59.209445132197" lon="17.897007482843">
        <ele>50.4</ele>
        <time>2020-04-17T12:31:42Z</time>
      </trkpt>
      <trkpt lat="59.20947170282" lon="17.896984767894">
        <ele>50.8</ele>
        <time>2020-04-17T12:31:43Z</time>
      </trkpt>
      <trkpt lat="59.2094985249" lon="17.896965573343">
        <ele>51</ele>
        <time>2020-04-17T12:31:44Z</time>
      </trkpt>
      <trkpt lat="59.209522497134" lon="17.896950569742">
        <ele>51.2</ele>
        <time>2020-04-17T12:31:45Z</time>
      </trkpt>
      <trkpt lat="59.209545714997" lon="17.896936152874">
        <ele>51.4</ele>
        <time>2020-04-17T12:31:46Z</time>
      </trkpt>
      <trkpt lat="59.209567591756" lon="17.896923580024">
        <ele>51.6</ele>
        <time>2020-04-17T12:31:47Z</time>
      </trkpt>
      <trkpt lat="59.209586870126" lon="17.896909917527">
        <ele>51.6</ele>
        <time>2020-04-17T12:31:48Z</time>
      </trkpt>
      <trkpt lat="59.209606064677" lon="17.89689625503">
        <ele>52</ele>
        <time>2020-04-17T12:31:49Z</time>
      </trkpt>
      <trkpt lat="59.209626935608" lon="17.896881251429">
        <ele>52.2</ele>
        <time>2020-04-17T12:31:50Z</time>
      </trkpt>
      <trkpt lat="59.209648225634" lon="17.896867840389">
        <ele>52.4</ele>
        <time>2020-04-17T12:31:51Z</time>
      </trkpt>
      <trkpt lat="59.209666833452" lon="17.896851914779">
        <ele>52.8</ele>
        <time>2020-04-17T12:31:52Z</time>
      </trkpt>
      <trkpt lat="59.209683597252" lon="17.896835989169">
        <ele>53</ele>
        <time>2020-04-17T12:31:53Z</time>
      </trkpt>
      <trkpt lat="59.209699271405" lon="17.896823583957">
        <ele>53.4</ele>
        <time>2020-04-17T12:31:54Z</time>
      </trkpt>
      <trkpt lat="59.209719723241" lon="17.896813777134">
        <ele>53.6</ele>
        <time>2020-04-17T12:31:55Z</time>
      </trkpt>
      <trkpt lat="59.209741767638" lon="17.896804640863">
        <ele>53.8</ele>
        <time>2020-04-17T12:31:56Z</time>
      </trkpt>
      <trkpt lat="59.209765153139" lon="17.896792990022">
        <ele>54.2</ele>
        <time>2020-04-17T12:31:57Z</time>
      </trkpt>
      <trkpt lat="59.209784096233" lon="17.896780333353">
        <ele>54.6</ele>
        <time>2020-04-17T12:31:58Z</time>
      </trkpt>
      <trkpt lat="59.209800608576" lon="17.896772035272">
        <ele>55</ele>
        <time>2020-04-17T12:31:59Z</time>
      </trkpt>
      <trkpt lat="59.209817456195" lon="17.896767676684">
        <ele>55.2</ele>
        <time>2020-04-17T12:32:00Z</time>
      </trkpt>
      <trkpt lat="59.209833297986" lon="17.896765832666">
        <ele>55.6</ele>
        <time>2020-04-17T12:32:01Z</time>
      </trkpt>
      <trkpt lat="59.209849223596" lon="17.89676382101">
        <ele>56</ele>
        <time>2020-04-17T12:32:02Z</time>
      </trkpt>
      <trkpt lat="59.2098673285" lon="17.896757786042">
        <ele>56.2</ele>
        <time>2020-04-17T12:32:03Z</time>
      </trkpt>
      <trkpt lat="59.209885098128" lon="17.896750577608">
        <ele>56.4</ele>
        <time>2020-04-17T12:32:04Z</time>
      </trkpt>
      <trkpt lat="59.209903789765" lon="17.89674538083">
        <ele>56.6</ele>
        <time>2020-04-17T12:32:05Z</time>
      </trkpt>
      <trkpt lat="59.209923151954" lon="17.896741692794">
        <ele>57</ele>
        <time>2020-04-17T12:32:06Z</time>
      </trkpt>
      <trkpt lat="59.20994360379" lon="17.896740016414">
        <ele>57.4</ele>
        <time>2020-04-17T12:32:07Z</time>
      </trkpt>
      <trkpt lat="59.209961289599" lon="17.896738507672">
        <ele>57.6</ele>
        <time>2020-04-17T12:32:08Z</time>
      </trkpt>
      <trkpt lat="59.209976712295" lon="17.896738842948">
        <ele>57.8</ele>
        <time>2020-04-17T12:32:09Z</time>
      </trkpt>
      <trkpt lat="59.209993476095" lon="17.896739010586">
        <ele>58</ele>
        <time>2020-04-17T12:32:10Z</time>
      </trkpt>
      <trkpt lat="59.210009317886" lon="17.896741692794">
        <ele>58.4</ele>
        <time>2020-04-17T12:32:11Z</time>
      </trkpt>
      <trkpt lat="59.21002742279" lon="17.896748649771">
        <ele>58.8</ele>
        <time>2020-04-17T12:32:12Z</time>
      </trkpt>
      <trkpt lat="59.210047874626" lon="17.896755271472">
        <ele>59.2</ele>
        <time>2020-04-17T12:32:13Z</time>
      </trkpt>
      <trkpt lat="59.210070002842" lon="17.896754768558">
        <ele>59.4</ele>
        <time>2020-04-17T12:32:14Z</time>
      </trkpt>
      <trkpt lat="59.210089113574" lon="17.896753175997">
        <ele>59.6</ele>
        <time>2020-04-17T12:32:15Z</time>
      </trkpt>
      <trkpt lat="59.210105290641" lon="17.89675879187">
        <ele>59.6</ele>
        <time>2020-04-17T12:32:16Z</time>
      </trkpt>
      <trkpt lat="59.210122892631" lon="17.896761641716">
        <ele>59.8</ele>
        <time>2020-04-17T12:32:17Z</time>
      </trkpt>
      <trkpt lat="59.210139572612" lon="17.896760971164">
        <ele>59.8</ele>
        <time>2020-04-17T12:32:18Z</time>
      </trkpt>
      <trkpt lat="59.210155246765" lon="17.896761893173">
        <ele>60</ele>
        <time>2020-04-17T12:32:19Z</time>
      </trkpt>
      <trkpt lat="59.21016991509" lon="17.896765329752">
        <ele>60</ele>
        <time>2020-04-17T12:32:20Z</time>
      </trkpt>
      <trkpt lat="59.210188439089" lon="17.896772957281">
        <ele>60.2</ele>
        <time>2020-04-17T12:32:21Z</time>
      </trkpt>
      <trkpt lat="59.210203777966" lon="17.896781758276">
        <ele>60.2</ele>
        <time>2020-04-17T12:32:22Z</time>
      </trkpt>
      <trkpt lat="59.210220541766" lon="17.896786200683">
        <ele>60.2</ele>
        <time>2020-04-17T12:32:23Z</time>
      </trkpt>
      <trkpt lat="59.210238311394" lon="17.89678729033">
        <ele>60.6</ele>
        <time>2020-04-17T12:32:24Z</time>
      </trkpt>
      <trkpt lat="59.210256500117" lon="17.896787122692">
        <ele>60.8</ele>
        <time>2020-04-17T12:32:25Z</time>
      </trkpt>
      <trkpt lat="59.210274940297" lon="17.896787541787">
        <ele>61</ele>
        <time>2020-04-17T12:32:26Z</time>
      </trkpt>
      <trkpt lat="59.210293631934" lon="17.896790140176">
        <ele>61.2</ele>
        <time>2020-04-17T12:32:27Z</time>
      </trkpt>
      <trkpt lat="59.210313748494" lon="17.896795001678">
        <ele>61.4</ele>
        <time>2020-04-17T12:32:28Z</time>
      </trkpt>
      <trkpt lat="59.210332104855" lon="17.896799192628">
        <ele>61.6</ele>
        <time>2020-04-17T12:32:29Z</time>
      </trkpt>
      <trkpt lat="59.210350880311" lon="17.896798102981">
        <ele>62</ele>
        <time>2020-04-17T12:32:30Z</time>
      </trkpt>
      <trkpt lat="59.210368649939" lon="17.896797767705">
        <ele>62.2</ele>
        <time>2020-04-17T12:32:31Z</time>
      </trkpt>
      <trkpt lat="59.210385078463" lon="17.896801036646">
        <ele>62.2</ele>
        <time>2020-04-17T12:32:32Z</time>
      </trkpt>
      <trkpt lat="59.210403602462" lon="17.896799946999">
        <ele>62.4</ele>
        <time>2020-04-17T12:32:33Z</time>
      </trkpt>
      <trkpt lat="59.210423802841" lon="17.896792570927">
        <ele>62.4</ele>
        <time>2020-04-17T12:32:34Z</time>
      </trkpt>
      <trkpt lat="59.210444506134" lon="17.896786116864">
        <ele>62.4</ele>
        <time>2020-04-17T12:32:35Z</time>
      </trkpt>
      <trkpt lat="59.210467556359" lon="17.896777902602">
        <ele>63.2</ele>
        <time>2020-04-17T12:32:36Z</time>
      </trkpt>
      <trkpt lat="59.21049178005" lon="17.89677136472">
        <ele>63.6</ele>
        <time>2020-04-17T12:32:37Z</time>
      </trkpt>
      <trkpt lat="59.210514830275" lon="17.896763653372">
        <ele>63.8</ele>
        <time>2020-04-17T12:32:38Z</time>
      </trkpt>
      <trkpt lat="59.210538634871" lon="17.89675040997">
        <ele>64</ele>
        <time>2020-04-17T12:32:39Z</time>
      </trkpt>
      <trkpt lat="59.210560092535" lon="17.896736412197">
        <ele>64</ele>
        <time>2020-04-17T12:32:40Z</time>
      </trkpt>
      <trkpt lat="59.210582556027" lon="17.896721492415">
        <ele>64</ele>
        <time>2020-04-17T12:32:41Z</time>
      </trkpt>
      <trkpt lat="59.210601666759" lon="17.896706237357">
        <ele>64.2</ele>
        <time>2020-04-17T12:32:42Z</time>
      </trkpt>
      <trkpt lat="59.210625471355" lon="17.896689976471">
        <ele>64.2</ele>
        <time>2020-04-17T12:32:43Z</time>
      </trkpt>
      <trkpt lat="59.21064852158" lon="17.896674302318">
        <ele>64.2</ele>
        <time>2020-04-17T12:32:44Z</time>
      </trkpt>
      <trkpt lat="59.210671487986" lon="17.896653012292">
        <ele>64.2</ele>
        <time>2020-04-17T12:32:45Z</time>
      </trkpt>
      <trkpt lat="59.210696046953" lon="17.896632308999">
        <ele>64.2</ele>
        <time>2020-04-17T12:32:46Z</time>
      </trkpt>
      <trkpt lat="59.210723036671" lon="17.896605738376">
        <ele>64.2</ele>
        <time>2020-04-17T12:32:47Z</time>
      </trkpt>
      <trkpt lat="59.210752289502" lon="17.896575647355">
        <ele>64.6</ele>
        <time>2020-04-17T12:32:48Z</time>
      </trkpt>
      <trkpt lat="59.210782045247" lon="17.896546645981">
        <ele>64.4</ele>
        <time>2020-04-17T12:32:49Z</time>
      </trkpt>
      <trkpt lat="59.210812303906" lon="17.896513872752">
        <ele>64.4</ele>
        <time>2020-04-17T12:32:50Z</time>
      </trkpt>
      <trkpt lat="59.210837868701" lon="17.896478920229">
        <ele>64.6</ele>
        <time>2020-04-17T12:32:51Z</time>
      </trkpt>
      <trkpt lat="59.210860248374" lon="17.896443380973">
        <ele>65.2</ele>
        <time>2020-04-17T12:32:52Z</time>
      </trkpt>
      <trkpt lat="59.210883550056" lon="17.896405746242">
        <ele>65.6</ele>
        <time>2020-04-17T12:32:53Z</time>
      </trkpt>
      <trkpt lat="59.210907857566" lon="17.896367608597">
        <ele>65.8</ele>
        <time>2020-04-17T12:32:54Z</time>
      </trkpt>
      <trkpt lat="59.210934009094" lon="17.896329303314">
        <ele>65.8</ele>
        <time>2020-04-17T12:32:55Z</time>
      </trkpt>
      <trkpt lat="59.210960914993" lon="17.896290076022">
        <ele>66</ele>
        <time>2020-04-17T12:32:56Z</time>
      </trkpt>
      <trkpt lat="59.210992011842" lon="17.896252022196">
        <ele>66.4</ele>
        <time>2020-04-17T12:32:57Z</time>
      </trkpt>
      <trkpt lat="59.211030317125" lon="17.896207179031">
        <ele>66.4</ele>
        <time>2020-04-17T12:32:58Z</time>
      </trkpt>
      <trkpt lat="59.211062000707" lon="17.896172561784">
        <ele>66.4</ele>
        <time>2020-04-17T12:32:59Z</time>
      </trkpt>
      <trkpt lat="59.211098210515" lon="17.896140710564">
        <ele>66.6</ele>
        <time>2020-04-17T12:33:00Z</time>
      </trkpt>
      <trkpt lat="59.211134504142" lon="17.896110368086">
        <ele>66.6</ele>
        <time>2020-04-17T12:33:01Z</time>
      </trkpt>
      <trkpt lat="59.211173312339" lon="17.896079187418">
        <ele>66.6</ele>
        <time>2020-04-17T12:33:02Z</time>
      </trkpt>
      <trkpt lat="59.21121094707" lon="17.89605135951">
        <ele>66.6</ele>
        <time>2020-04-17T12:33:03Z</time>
      </trkpt>
      <trkpt lat="59.211246067231" lon="17.896028225466">
        <ele>66.6</ele>
        <time>2020-04-17T12:33:04Z</time>
      </trkpt>
      <trkpt lat="59.211281019754" lon="17.896006432526">
        <ele>66.6</ele>
        <time>2020-04-17T12:33:05Z</time>
      </trkpt>
      <trkpt lat="59.211317900114" lon="17.895982711749">
        <ele>66.4</ele>
        <time>2020-04-17T12:33:06Z</time>
      </trkpt>
      <trkpt lat="59.211359055243" lon="17.895964020112">
        <ele>66.2</ele>
        <time>2020-04-17T12:33:07Z</time>
      </trkpt>
      <trkpt lat="59.211395851784" lon="17.895959242429">
        <ele>66</ele>
        <time>2020-04-17T12:33:08Z</time>
      </trkpt>
      <trkpt lat="59.211433737972" lon="17.895960248257">
        <ele>66</ele>
        <time>2020-04-17T12:33:09Z</time>
      </trkpt>
      <trkpt lat="59.211474893101" lon="17.895962259913">
        <ele>66</ele>
        <time>2020-04-17T12:33:10Z</time>
      </trkpt>
      <trkpt lat="59.211515880592" lon="17.895963684836">
        <ele>66</ele>
        <time>2020-04-17T12:33:11Z</time>
      </trkpt>
      <trkpt lat="59.211561142852" lon="17.895970138899">
        <ele>66</ele>
        <time>2020-04-17T12:33:12Z</time>
      </trkpt>
      <trkpt lat="59.211608919682" lon="17.895983382301">
        <ele>66</ele>
        <time>2020-04-17T12:33:13Z</time>
      </trkpt>
      <trkpt lat="59.21165602596" lon="17.896001235748">
        <ele>66</ele>
        <time>2020-04-17T12:33:14Z</time>
      </trkpt>
      <trkpt lat="59.211702880781" lon="17.89602537562">
        <ele>66</ele>
        <time>2020-04-17T12:33:15Z</time>
      </trkpt>
      <trkpt lat="59.211754010371" lon="17.896054125537">
        <ele>65.8</ele>
        <time>2020-04-17T12:33:16Z</time>
      </trkpt>
      <trkpt lat="59.211806145789" lon="17.896082288721">
        <ele>65.8</ele>
        <time>2020-04-17T12:33:17Z</time>
      </trkpt>
      <trkpt lat="59.211860879596" lon="17.896102405281">
        <ele>65.8</ele>
        <time>2020-04-17T12:33:18Z</time>
      </trkpt>
      <trkpt lat="59.211917122145" lon="17.896119504357">
        <ele>65.8</ele>
        <time>2020-04-17T12:33:19Z</time>
      </trkpt>
      <trkpt lat="59.211974621979" lon="17.896136519614">
        <ele>65.8</ele>
        <time>2020-04-17T12:33:20Z</time>
      </trkpt>
      <trkpt lat="59.212032289451" lon="17.896153702509">
        <ele>65.8</ele>
        <time>2020-04-17T12:33:21Z</time>
      </trkpt>
      <trkpt lat="59.212087861448" lon="17.896172561784">
        <ele>65.8</ele>
        <time>2020-04-17T12:33:22Z</time>
      </trkpt>
      <trkpt lat="59.212146031834" lon="17.896192343068">
        <ele>65.8</ele>
        <time>2020-04-17T12:33:23Z</time>
      </trkpt>
      <trkpt lat="59.212201939107" lon="17.896213465456">
        <ele>65.8</ele>
        <time>2020-04-17T12:33:24Z</time>
      </trkpt>
      <trkpt lat="59.212259438941" lon="17.896234168749">
        <ele>65.6</ele>
        <time>2020-04-17T12:33:25Z</time>
      </trkpt>
      <trkpt lat="59.212318447517" lon="17.896253866214">
        <ele>65.4</ele>
        <time>2020-04-17T12:33:26Z</time>
      </trkpt>
      <trkpt lat="59.212377623731" lon="17.896276916439">
        <ele>65</ele>
        <time>2020-04-17T12:33:27Z</time>
      </trkpt>
      <trkpt lat="59.212441326171" lon="17.896303738519">
        <ele>64.6</ele>
        <time>2020-04-17T12:33:28Z</time>
      </trkpt>
      <trkpt lat="59.212502430222" lon="17.896336930843">
        <ele>64</ele>
        <time>2020-04-17T12:33:29Z</time>
      </trkpt>
      <trkpt lat="59.212563534273" lon="17.896374733212">
        <ele>63.6</ele>
        <time>2020-04-17T12:33:30Z</time>
      </trkpt>
      <trkpt lat="59.212626817618" lon="17.896416475074">
        <ele>63.2</ele>
        <time>2020-04-17T12:33:31Z</time>
      </trkpt>
      <trkpt lat="59.212691693524" lon="17.896465173913">
        <ele>63</ele>
        <time>2020-04-17T12:33:32Z</time>
      </trkpt>
      <trkpt lat="59.212756485611" lon="17.896518063702">
        <ele>62.6</ele>
        <time>2020-04-17T12:33:33Z</time>
      </trkpt>
      <trkpt lat="59.212824127544" lon="17.89656936093">
        <ele>62</ele>
        <time>2020-04-17T12:33:34Z</time>
      </trkpt>
      <trkpt lat="59.212891769477" lon="17.896624094737">
        <ele>61.6</ele>
        <time>2020-04-17T12:33:35Z</time>
      </trkpt>
      <trkpt lat="59.212961003971" lon="17.896682935675">
        <ele>61.2</ele>
        <time>2020-04-17T12:33:36Z</time>
      </trkpt>
      <trkpt lat="59.213032082483" lon="17.896743872088">
        <ele>60.8</ele>
        <time>2020-04-17T12:33:37Z</time>
      </trkpt>
      <trkpt lat="59.213105005013" lon="17.896809586184">
        <ele>60.4</ele>
        <time>2020-04-17T12:33:38Z</time>
      </trkpt>
      <trkpt lat="59.213183040502" lon="17.896875803194">
        <ele>59.8</ele>
        <time>2020-04-17T12:33:39Z</time>
      </trkpt>
      <trkpt lat="59.213262668552" lon="17.896940260005">
        <ele>59.2</ele>
        <time>2020-04-17T12:33:40Z</time>
      </trkpt>
      <trkpt lat="59.213342045145" lon="17.897004968273">
        <ele>58.4</ele>
        <time>2020-04-17T12:33:41Z</time>
      </trkpt>
      <trkpt lat="59.213428378715" lon="17.897072945482">
        <ele>58</ele>
        <time>2020-04-17T12:33:42Z</time>
      </trkpt>
      <trkpt lat="59.213522842728" lon="17.897144610727">
        <ele>57.6</ele>
        <time>2020-04-17T12:33:43Z</time>
      </trkpt>
      <trkpt lat="59.213620408044" lon="17.897216024515">
        <ele>57.2</ele>
        <time>2020-04-17T12:33:44Z</time>
      </trkpt>
      <trkpt lat="59.213717805722" lon="17.897285845742">
        <ele>56.4</ele>
        <time>2020-04-17T12:33:45Z</time>
      </trkpt>
      <trkpt lat="59.213815790133" lon="17.8973513922">
        <ele>55.4</ele>
        <time>2020-04-17T12:33:46Z</time>
      </trkpt>
      <trkpt lat="59.213915283286" lon="17.897416016649">
        <ele>54.8</ele>
        <time>2020-04-17T12:33:47Z</time>
      </trkpt>
      <trkpt lat="59.214012848602" lon="17.897484412953">
        <ele>54.4</ele>
        <time>2020-04-17T12:33:48Z</time>
      </trkpt>
      <trkpt lat="59.214109911004" lon="17.897557000207">
        <ele>53.8</ele>
        <time>2020-04-17T12:33:49Z</time>
      </trkpt>
      <trkpt lat="59.21420663813" lon="17.897635706248">
        <ele>52.8</ele>
        <time>2020-04-17T12:33:50Z</time>
      </trkpt>
      <trkpt lat="59.214305628369" lon="17.897715837212">
        <ele>51.4</ele>
        <time>2020-04-17T12:33:51Z</time>
      </trkpt>
      <trkpt lat="59.214398080726" lon="17.897794291796">
        <ele>49.6</ele>
        <time>2020-04-17T12:33:52Z</time>
      </trkpt>
      <trkpt lat="59.214483408468" lon="17.897868890706">
        <ele>48</ele>
        <time>2020-04-17T12:33:53Z</time>
      </trkpt>
      <trkpt lat="59.214561527776" lon="17.897934856259">
        <ele>46.6</ele>
        <time>2020-04-17T12:33:54Z</time>
      </trkpt>
      <trkpt lat="59.214633444478" lon="17.89799260755">
        <ele>45.2</ele>
        <time>2020-04-17T12:33:55Z</time>
      </trkpt>
      <trkpt lat="59.214696057271" lon="17.898044240054">
        <ele>43.8</ele>
        <time>2020-04-17T12:33:56Z</time>
      </trkpt>
      <trkpt lat="59.214752802734" lon="17.898078857301">
        <ele>42.8</ele>
        <time>2020-04-17T12:33:57Z</time>
      </trkpt>
      <trkpt lat="59.214808626188" lon="17.898095034368">
        <ele>41.8</ele>
        <time>2020-04-17T12:33:58Z</time>
      </trkpt>
      <trkpt lat="59.214864282004" lon="17.898117749317">
        <ele>41.2</ele>
        <time>2020-04-17T12:33:59Z</time>
      </trkpt>
      <trkpt lat="59.214918177621" lon="17.898159658817">
        <ele>40.8</ele>
        <time>2020-04-17T12:34:00Z</time>
      </trkpt>
      <trkpt lat="59.21496436189" lon="17.898219002669">
        <ele>40.4</ele>
        <time>2020-04-17T12:34:01Z</time>
      </trkpt>
      <trkpt lat="59.215005181743" lon="17.898292344294">
        <ele>40</ele>
        <time>2020-04-17T12:34:02Z</time>
      </trkpt>
      <trkpt lat="59.215082798137" lon="17.898439111363">
        <ele>39</ele>
        <time>2020-04-17T12:34:04Z</time>
      </trkpt>
      <trkpt lat="59.215127725121" lon="17.898503651993">
        <ele>39</ele>
        <time>2020-04-17T12:34:05Z</time>
      </trkpt>
      <trkpt lat="59.2151730712" lon="17.898565678053">
        <ele>38.8</ele>
        <time>2020-04-17T12:34:06Z</time>
      </trkpt>
      <trkpt lat="59.21522000984" lon="17.898624351353">
        <ele>38.6</ele>
        <time>2020-04-17T12:34:07Z</time>
      </trkpt>
      <trkpt lat="59.215268038127" lon="17.898677241142">
        <ele>38.6</ele>
        <time>2020-04-17T12:34:08Z</time>
      </trkpt>
      <trkpt lat="59.215318497165" lon="17.898722084307">
        <ele>38.4</ele>
        <time>2020-04-17T12:34:09Z</time>
      </trkpt>
      <trkpt lat="59.215370716402" lon="17.898756282459">
        <ele>38.4</ele>
        <time>2020-04-17T12:34:10Z</time>
      </trkpt>
      <trkpt lat="59.215422265087" lon="17.898782601625">
        <ele>38</ele>
        <time>2020-04-17T12:34:11Z</time>
      </trkpt>
      <trkpt lat="59.215472472668" lon="17.898807076773">
        <ele>38</ele>
        <time>2020-04-17T12:34:12Z</time>
      </trkpt>
      <trkpt lat="59.215518573118" lon="17.8988433704">
        <ele>37.6</ele>
        <time>2020-04-17T12:34:13Z</time>
      </trkpt>
      <trkpt lat="59.215555872573" lon="17.898896008732">
        <ele>37.4</ele>
        <time>2020-04-17T12:34:14Z</time>
      </trkpt>
      <trkpt lat="59.215587220879" lon="17.898953760023">
        <ele>37.4</ele>
        <time>2020-04-17T12:34:15Z</time>
      </trkpt>
      <trkpt lat="59.215620413203" lon="17.899005643984">
        <ele>37.2</ele>
        <time>2020-04-17T12:34:16Z</time>
      </trkpt>
      <trkpt lat="59.215657042106" lon="17.899051576796">
        <ele>37</ele>
        <time>2020-04-17T12:34:17Z</time>
      </trkpt>
      <trkpt lat="59.215697945778" lon="17.899089462984">
        <ele>37</ele>
        <time>2020-04-17T12:34:18Z</time>
      </trkpt>
      <trkpt lat="59.215743794771" lon="17.899118464358">
        <ele>36.8</ele>
        <time>2020-04-17T12:34:19Z</time>
      </trkpt>
      <trkpt lat="59.215790984868" lon="17.899144196791">
        <ele>36.8</ele>
        <time>2020-04-17T12:34:20Z</time>
      </trkpt>
      <trkpt lat="59.215832139997" lon="17.899175796554">
        <ele>36.8</ele>
        <time>2020-04-17T12:34:21Z</time>
      </trkpt>
      <trkpt lat="59.215865080864" lon="17.899216029674">
        <ele>36.8</ele>
        <time>2020-04-17T12:34:22Z</time>
      </trkpt>
      <trkpt lat="59.215884862148" lon="17.899271434033">
        <ele>36.8</ele>
        <time>2020-04-17T12:34:23Z</time>
      </trkpt>
      <trkpt lat="59.215882012302" lon="17.899334382102">
        <ele>36.6</ele>
        <time>2020-04-17T12:34:24Z</time>
      </trkpt>
      <trkpt lat="59.215866673425" lon="17.899389451185">
        <ele>36.6</ele>
        <time>2020-04-17T12:34:25Z</time>
      </trkpt>
      <trkpt lat="59.215850161082" lon="17.899437898567">
        <ele>36.4</ele>
        <time>2020-04-17T12:34:26Z</time>
      </trkpt>
      <trkpt lat="59.215826188848" lon="17.89948710032">
        <ele>36.4</ele>
        <time>2020-04-17T12:34:27Z</time>
      </trkpt>
      <trkpt lat="59.215803641537" lon="17.899537224082">
        <ele>36.4</ele>
        <time>2020-04-17T12:34:28Z</time>
      </trkpt>
      <trkpt lat="59.215781513321" lon="17.899576367555">
        <ele>36.2</ele>
        <time>2020-04-17T12:34:29Z</time>
      </trkpt>
      <trkpt lat="59.215762905503" lon="17.899603105816">
        <ele>36.2</ele>
        <time>2020-04-17T12:34:30Z</time>
      </trkpt>
      <trkpt lat="59.215744884418" lon="17.899621965091">
        <ele>36.2</ele>
        <time>2020-04-17T12:34:31Z</time>
      </trkpt>
      <trkpt lat="59.215735999604" lon="17.899627832421">
        <ele>36.2</ele>
        <time>2020-04-17T12:34:32Z</time>
      </trkpt>
      <trkpt lat="59.215729377903" lon="17.899630011715">
        <ele>36.2</ele>
        <time>2020-04-17T12:34:33Z</time>
      </trkpt>
      <trkpt lat="59.215726108962" lon="17.899735791293">
        <ele>36</ele>
        <time>2020-04-17T12:35:38Z</time>
      </trkpt>
      <trkpt lat="59.215733652672" lon="17.899763786839">
        <ele>36</ele>
        <time>2020-04-17T12:35:39Z</time>
      </trkpt>
      <trkpt lat="59.2157430404" lon="17.899790944195">
        <ele>36</ele>
        <time>2020-04-17T12:35:40Z</time>
      </trkpt>
      <trkpt lat="59.215752679585" lon="17.899814748791">
        <ele>36</ele>
        <time>2020-04-17T12:35:41Z</time>
      </trkpt>
      <trkpt lat="59.215763492236" lon="17.899839223939">
        <ele>36</ele>
        <time>2020-04-17T12:35:42Z</time>
      </trkpt>
      <trkpt lat="59.215775897448" lon="17.899865459286">
        <ele>36</ele>
        <time>2020-04-17T12:35:43Z</time>
      </trkpt>
      <trkpt lat="59.215787967384" lon="17.899887000769">
        <ele>36</ele>
        <time>2020-04-17T12:35:44Z</time>
      </trkpt>
      <trkpt lat="59.215803557718" lon="17.899903513112">
        <ele>36.2</ele>
        <time>2020-04-17T12:35:45Z</time>
      </trkpt>
      <trkpt lat="59.215821494984" lon="17.899924719319">
        <ele>36.2</ele>
        <time>2020-04-17T12:35:46Z</time>
      </trkpt>
      <trkpt lat="59.21584027044" lon="17.899952547227">
        <ele>36.2</ele>
        <time>2020-04-17T12:35:47Z</time>
      </trkpt>
      <trkpt lat="59.215861392828" lon="17.899981297144">
        <ele>36.2</ele>
        <time>2020-04-17T12:35:48Z</time>
      </trkpt>
      <trkpt lat="59.215885784157" lon="17.900009460328">
        <ele>36.2</ele>
        <time>2020-04-17T12:35:49Z</time>
      </trkpt>
      <trkpt lat="59.215908247649" lon="17.900037372055">
        <ele>36.2</ele>
        <time>2020-04-17T12:35:50Z</time>
      </trkpt>
      <trkpt lat="59.215929370037" lon="17.900065535239">
        <ele>36.2</ele>
        <time>2020-04-17T12:35:51Z</time>
      </trkpt>
      <trkpt lat="59.215950408606" lon="17.900098476106">
        <ele>36.2</ele>
        <time>2020-04-17T12:35:52Z</time>
      </trkpt>
      <trkpt lat="59.215972536822" lon="17.900136194656">
        <ele>36.2</ele>
        <time>2020-04-17T12:35:53Z</time>
      </trkpt>
      <trkpt lat="59.215992988658" lon="17.900181456916">
        <ele>36.4</ele>
        <time>2020-04-17T12:35:54Z</time>
      </trkpt>
      <trkpt lat="59.216012350847" lon="17.900233843791">
        <ele>36.6</ele>
        <time>2020-04-17T12:35:55Z</time>
      </trkpt>
      <trkpt lat="59.216034898158" lon="17.900286985037">
        <ele>36.8</ele>
        <time>2020-04-17T12:35:56Z</time>
      </trkpt>
      <trkpt lat="59.216060630591" lon="17.900336689704">
        <ele>37</ele>
        <time>2020-04-17T12:35:57Z</time>
      </trkpt>
      <trkpt lat="59.216092397992" lon="17.900379269756">
        <ele>37.2</ele>
        <time>2020-04-17T12:35:58Z</time>
      </trkpt>
      <trkpt lat="59.216130200361" lon="17.900417407401">
        <ele>37.2</ele>
        <time>2020-04-17T12:35:59Z</time>
      </trkpt>
      <trkpt lat="59.216166242531" lon="17.900460909462">
        <ele>37.4</ele>
        <time>2020-04-17T12:36:00Z</time>
      </trkpt>
      <trkpt lat="59.216198764303" lon="17.900515643269">
        <ele>37.4</ele>
        <time>2020-04-17T12:36:01Z</time>
      </trkpt>
      <trkpt lat="59.216229442057" lon="17.900575657673">
        <ele>37.4</ele>
        <time>2020-04-17T12:36:02Z</time>
      </trkpt>
      <trkpt lat="59.21626020363" lon="17.900637767552">
        <ele>37.4</ele>
        <time>2020-04-17T12:36:03Z</time>
      </trkpt>
      <trkpt lat="59.216290797565" lon="17.900703733105">
        <ele>37.2</ele>
        <time>2020-04-17T12:36:04Z</time>
      </trkpt>
      <trkpt lat="59.216320804767" lon="17.900770620667">
        <ele>37.2</ele>
        <time>2020-04-17T12:36:05Z</time>
      </trkpt>
      <trkpt lat="59.216350057598" lon="17.900835664211">
        <ele>37.4</ele>
        <time>2020-04-17T12:36:06Z</time>
      </trkpt>
      <trkpt lat="59.216377382592" lon="17.900901294488">
        <ele>37.4</ele>
        <time>2020-04-17T12:36:07Z</time>
      </trkpt>
      <trkpt lat="59.216402276835" lon="17.900965835118">
        <ele>37.4</ele>
        <time>2020-04-17T12:36:08Z</time>
      </trkpt>
      <trkpt lat="59.216425662336" lon="17.901029118463">
        <ele>37.4</ele>
        <time>2020-04-17T12:36:09Z</time>
      </trkpt>
      <trkpt lat="59.216448125828" lon="17.901094916378">
        <ele>37.4</ele>
        <time>2020-04-17T12:36:10Z</time>
      </trkpt>
      <trkpt lat="59.216472517157" lon="17.901163564139">
        <ele>37.4</ele>
        <time>2020-04-17T12:36:11Z</time>
      </trkpt>
      <trkpt lat="59.216498920142" lon="17.901233469185">
        <ele>37.4</ele>
        <time>2020-04-17T12:36:12Z</time>
      </trkpt>
      <trkpt lat="59.21652674805" lon="17.901300859661">
        <ele>37.4</ele>
        <time>2020-04-17T12:36:13Z</time>
      </trkpt>
      <trkpt lat="59.216553151035" lon="17.901369339784">
        <ele>37.4</ele>
        <time>2020-04-17T12:36:14Z</time>
      </trkpt>
      <trkpt lat="59.216576117441" lon="17.901442094676">
        <ele>37.4</ele>
        <time>2020-04-17T12:36:15Z</time>
      </trkpt>
      <trkpt lat="59.216596569277" lon="17.901516023034">
        <ele>37.8</ele>
        <time>2020-04-17T12:36:16Z</time>
      </trkpt>
      <trkpt lat="59.216611572878" lon="17.901593807066">
        <ele>38</ele>
        <time>2020-04-17T12:36:17Z</time>
      </trkpt>
      <trkpt lat="59.216620876787" lon="17.901670752908">
        <ele>38.4</ele>
        <time>2020-04-17T12:36:18Z</time>
      </trkpt>
      <trkpt lat="59.216629342506" lon="17.901742082877">
        <ele>38.6</ele>
        <time>2020-04-17T12:36:19Z</time>
      </trkpt>
      <trkpt lat="59.2166399037" lon="17.901810646819">
        <ele>38.8</ele>
        <time>2020-04-17T12:36:20Z</time>
      </trkpt>
      <trkpt lat="59.21664996198" lon="17.90188097096">
        <ele>39</ele>
        <time>2020-04-17T12:36:21Z</time>
      </trkpt>
      <trkpt lat="59.216662367192" lon="17.901953390576">
        <ele>39</ele>
        <time>2020-04-17T12:36:22Z</time>
      </trkpt>
      <trkpt lat="59.216679550087" lon="17.902019942862">
        <ele>39</ele>
        <time>2020-04-17T12:36:23Z</time>
      </trkpt>
      <trkpt lat="59.216698074086" lon="17.902081968922">
        <ele>39.2</ele>
        <time>2020-04-17T12:36:24Z</time>
      </trkpt>
      <trkpt lat="59.216714754067" lon="17.902141731869">
        <ele>39.2</ele>
        <time>2020-04-17T12:36:25Z</time>
      </trkpt>
      <trkpt lat="59.216729925306" lon="17.902198896427">
        <ele>39.2</ele>
        <time>2020-04-17T12:36:26Z</time>
      </trkpt>
      <trkpt lat="59.216745180364" lon="17.902252205311">
        <ele>39.2</ele>
        <time>2020-04-17T12:36:27Z</time>
      </trkpt>
      <trkpt lat="59.216761105974" lon="17.902301407064">
        <ele>39.4</ele>
        <time>2020-04-17T12:36:28Z</time>
      </trkpt>
      <trkpt lat="59.216778288869" lon="17.902349602989">
        <ele>39.4</ele>
        <time>2020-04-17T12:36:29Z</time>
      </trkpt>
      <trkpt lat="59.216796812868" lon="17.90239561962">
        <ele>39.4</ele>
        <time>2020-04-17T12:36:30Z</time>
      </trkpt>
      <trkpt lat="59.216814582496" lon="17.902446162477">
        <ele>39.6</ele>
        <time>2020-04-17T12:36:31Z</time>
      </trkpt>
      <trkpt lat="59.216832016848" lon="17.902502405026">
        <ele>39.6</ele>
        <time>2020-04-17T12:36:32Z</time>
      </trkpt>
      <trkpt lat="59.216851546675" lon="17.902557641747">
        <ele>39.6</ele>
        <time>2020-04-17T12:36:33Z</time>
      </trkpt>
      <trkpt lat="59.216871411778" lon="17.902612459373">
        <ele>39.6</ele>
        <time>2020-04-17T12:36:34Z</time>
      </trkpt>
      <trkpt lat="59.216887588845" lon="17.902671132673">
        <ele>39.6</ele>
        <time>2020-04-17T12:36:35Z</time>
      </trkpt>
      <trkpt lat="59.216898652953" lon="17.902736260036">
        <ele>39.6</ele>
        <time>2020-04-17T12:36:36Z</time>
      </trkpt>
      <trkpt lat="59.216903765912" lon="17.902804823978">
        <ele>39.6</ele>
        <time>2020-04-17T12:36:37Z</time>
      </trkpt>
      <trkpt lat="59.216902760084" lon="17.902872046816">
        <ele>39.6</ele>
        <time>2020-04-17T12:36:38Z</time>
      </trkpt>
      <trkpt lat="59.216899994057" lon="17.902934156695">
        <ele>39.6</ele>
        <time>2020-04-17T12:36:39Z</time>
      </trkpt>
      <trkpt lat="59.216900999885" lon="17.903001798628">
        <ele>39.4</ele>
        <time>2020-04-17T12:36:40Z</time>
      </trkpt>
      <trkpt lat="59.21691063907" lon="17.903060136652">
        <ele>39.4</ele>
        <time>2020-04-17T12:36:41Z</time>
      </trkpt>
      <trkpt lat="59.216927738146" lon="17.903118055581">
        <ele>39.4</ele>
        <time>2020-04-17T12:36:42Z</time>
      </trkpt>
      <trkpt lat="59.216944753403" lon="17.903168011705">
        <ele>39.4</ele>
        <time>2020-04-17T12:36:43Z</time>
      </trkpt>
      <trkpt lat="59.216965540515" lon="17.903218638381">
        <ele>39.4</ele>
        <time>2020-04-17T12:36:44Z</time>
      </trkpt>
      <trkpt lat="59.216991356767" lon="17.903265241745">
        <ele>39.4</ele>
        <time>2020-04-17T12:36:45Z</time>
      </trkpt>
      <trkpt lat="59.217023962358" lon="17.903291225635">
        <ele>39.4</ele>
        <time>2020-04-17T12:36:46Z</time>
      </trkpt>
      <trkpt lat="59.217057657596" lon="17.90329835025">
        <ele>39.2</ele>
        <time>2020-04-17T12:36:47Z</time>
      </trkpt>
      <trkpt lat="59.217091939567" lon="17.903294410757">
        <ele>39.2</ele>
        <time>2020-04-17T12:36:48Z</time>
      </trkpt>
      <trkpt lat="59.2171260539" lon="17.903291141816">
        <ele>39.2</ele>
        <time>2020-04-17T12:36:49Z</time>
      </trkpt>
      <trkpt lat="59.217159916776" lon="17.903296422413">
        <ele>39</ele>
        <time>2020-04-17T12:36:50Z</time>
      </trkpt>
      <trkpt lat="59.217193528195" lon="17.90330589396">
        <ele>39</ele>
        <time>2020-04-17T12:36:51Z</time>
      </trkpt>
      <trkpt lat="59.217225630872" lon="17.903318550629">
        <ele>39</ele>
        <time>2020-04-17T12:36:52Z</time>
      </trkpt>
      <trkpt lat="59.217258068825" lon="17.903340008293">
        <ele>38.8</ele>
        <time>2020-04-17T12:36:53Z</time>
      </trkpt>
      <trkpt lat="59.217287908389" lon="17.903373703531">
        <ele>38.8</ele>
        <time>2020-04-17T12:36:54Z</time>
      </trkpt>
      <trkpt lat="59.217312802632" lon="17.90341569685">
        <ele>38.8</ele>
        <time>2020-04-17T12:36:55Z</time>
      </trkpt>
      <trkpt lat="59.217336607228" lon="17.903460623834">
        <ele>38.8</ele>
        <time>2020-04-17T12:36:56Z</time>
      </trkpt>
      <trkpt lat="59.217356220874" lon="17.903509825587">
        <ele>38.8</ele>
        <time>2020-04-17T12:36:57Z</time>
      </trkpt>
      <trkpt lat="59.217375666882" lon="17.903558356788">
        <ele>38.6</ele>
        <time>2020-04-17T12:36:58Z</time>
      </trkpt>
      <trkpt lat="59.217400477306" lon="17.903611162758">
        <ele>38.6</ele>
        <time>2020-04-17T12:36:59Z</time>
      </trkpt>
      <trkpt lat="59.217423108436" lon="17.90366799204">
        <ele>38.6</ele>
        <time>2020-04-17T12:37:00Z</time>
      </trkpt>
      <trkpt lat="59.217446829213" lon="17.903726749159">
        <ele>38.6</ele>
        <time>2020-04-17T12:37:01Z</time>
      </trkpt>
      <trkpt lat="59.217470047076" lon="17.90378198588">
        <ele>38.6</ele>
        <time>2020-04-17T12:37:02Z</time>
      </trkpt>
      <trkpt lat="59.217491588559" lon="17.903834708031">
        <ele>38.6</ele>
        <time>2020-04-17T12:37:03Z</time>
      </trkpt>
      <trkpt lat="59.217510196377" lon="17.903885753802">
        <ele>38.6</ele>
        <time>2020-04-17T12:37:04Z</time>
      </trkpt>
      <trkpt lat="59.217529726204" lon="17.903935626107">
        <ele>38.6</ele>
        <time>2020-04-17T12:37:05Z</time>
      </trkpt>
      <trkpt lat="59.217549758945" lon="17.903983067661">
        <ele>38.6</ele>
        <time>2020-04-17T12:37:06Z</time>
      </trkpt>
      <trkpt lat="59.217569204953" lon="17.904030760672">
        <ele>38.6</ele>
        <time>2020-04-17T12:37:07Z</time>
      </trkpt>
      <trkpt lat="59.217587980409" lon="17.904080465339">
        <ele>38.8</ele>
        <time>2020-04-17T12:37:08Z</time>
      </trkpt>
      <trkpt lat="59.217606001494" lon="17.904130086187">
        <ele>38.8</ele>
        <time>2020-04-17T12:37:09Z</time>
      </trkpt>
      <trkpt lat="59.217624190217" lon="17.904179204121">
        <ele>38.8</ele>
        <time>2020-04-17T12:37:10Z</time>
      </trkpt>
      <trkpt lat="59.217640367284" lon="17.904228070598">
        <ele>39</ele>
        <time>2020-04-17T12:37:11Z</time>
      </trkpt>
      <trkpt lat="59.217661322034" lon="17.9042748416">
        <ele>39</ele>
        <time>2020-04-17T12:37:12Z</time>
      </trkpt>
      <trkpt lat="59.21768512663" lon="17.904322366973">
        <ele>39.2</ele>
        <time>2020-04-17T12:37:13Z</time>
      </trkpt>
      <trkpt lat="59.217709685597" lon="17.904373161287">
        <ele>39.4</ele>
        <time>2020-04-17T12:37:14Z</time>
      </trkpt>
      <trkpt lat="59.217731981451" lon="17.904426973085">
        <ele>39.4</ele>
        <time>2020-04-17T12:37:15Z</time>
      </trkpt>
      <trkpt lat="59.217753774391" lon="17.904485478747">
        <ele>39.8</ele>
        <time>2020-04-17T12:37:16Z</time>
      </trkpt>
      <trkpt lat="59.217776908435" lon="17.90454473878">
        <ele>39.8</ele>
        <time>2020-04-17T12:37:17Z</time>
      </trkpt>
      <trkpt lat="59.217797527909" lon="17.904602406252">
        <ele>39.8</ele>
        <time>2020-04-17T12:37:18Z</time>
      </trkpt>
      <trkpt lat="59.217818985573" lon="17.904658816439">
        <ele>39.8</ele>
        <time>2020-04-17T12:37:19Z</time>
      </trkpt>
      <trkpt lat="59.217840275599" lon="17.904710784219">
        <ele>39.8</ele>
        <time>2020-04-17T12:37:20Z</time>
      </trkpt>
      <trkpt lat="59.21785863196" lon="17.904759734515">
        <ele>39.8</ele>
        <time>2020-04-17T12:37:21Z</time>
      </trkpt>
      <trkpt lat="59.217875060484" lon="17.904807846621">
        <ele>39.8</ele>
        <time>2020-04-17T12:37:22Z</time>
      </trkpt>
      <trkpt lat="59.217891237551" lon="17.904855791089">
        <ele>39.8</ele>
        <time>2020-04-17T12:37:23Z</time>
      </trkpt>
      <trkpt lat="59.217909174817" lon="17.904906333946">
        <ele>39.6</ele>
        <time>2020-04-17T12:37:24Z</time>
      </trkpt>
      <trkpt lat="59.217934320517" lon="17.90495545188">
        <ele>39.6</ele>
        <time>2020-04-17T12:37:25Z</time>
      </trkpt>
      <trkpt lat="59.217959382398" lon="17.905006413832">
        <ele>39.4</ele>
        <time>2020-04-17T12:37:26Z</time>
      </trkpt>
      <trkpt lat="59.217991652713" lon="17.905063746028">
        <ele>39.4</ele>
        <time>2020-04-17T12:37:27Z</time>
      </trkpt>
      <trkpt lat="59.218018139517" lon="17.905123844251">
        <ele>39</ele>
        <time>2020-04-17T12:37:28Z</time>
      </trkpt>
      <trkpt lat="59.218042111751" lon="17.905188552519">
        <ele>39</ele>
        <time>2020-04-17T12:37:29Z</time>
      </trkpt>
      <trkpt lat="59.218068430917" lon="17.905256781185">
        <ele>39</ele>
        <time>2020-04-17T12:37:30Z</time>
      </trkpt>
      <trkpt lat="59.218094666264" lon="17.905326015679">
        <ele>39</ele>
        <time>2020-04-17T12:37:31Z</time>
      </trkpt>
      <trkpt lat="59.218123248543" lon="17.905398267657">
        <ele>39</ele>
        <time>2020-04-17T12:37:32Z</time>
      </trkpt>
      <trkpt lat="59.218149567709" lon="17.905472782748">
        <ele>39</ele>
        <time>2020-04-17T12:37:33Z</time>
      </trkpt>
      <trkpt lat="59.218175886875" lon="17.905547884572">
        <ele>39</ele>
        <time>2020-04-17T12:37:34Z</time>
      </trkpt>
      <trkpt lat="59.218205307344" lon="17.905622567301">
        <ele>39.2</ele>
        <time>2020-04-17T12:37:35Z</time>
      </trkpt>
      <trkpt lat="59.218231375053" lon="17.905700518971">
        <ele>39.2</ele>
        <time>2020-04-17T12:37:36Z</time>
      </trkpt>
      <trkpt lat="59.218256353115" lon="17.905775620795">
        <ele>39.2</ele>
        <time>2020-04-17T12:37:37Z</time>
      </trkpt>
      <trkpt lat="59.218281247358" lon="17.905844100918">
        <ele>39.2</ele>
        <time>2020-04-17T12:37:38Z</time>
      </trkpt>
      <trkpt lat="59.2183079018" lon="17.905908557729">
        <ele>39.2</ele>
        <time>2020-04-17T12:37:39Z</time>
      </trkpt>
      <trkpt lat="59.218331706396" lon="17.905974523282">
        <ele>39.2</ele>
        <time>2020-04-17T12:37:40Z</time>
      </trkpt>
      <trkpt lat="59.218357187372" lon="17.906039399188">
        <ele>39.2</ele>
        <time>2020-04-17T12:37:41Z</time>
      </trkpt>
      <trkpt lat="59.218383171262" lon="17.906101676705">
        <ele>39.2</ele>
        <time>2020-04-17T12:37:42Z</time>
      </trkpt>
      <trkpt lat="59.218408903695" lon="17.906166468792">
        <ele>39.2</ele>
        <time>2020-04-17T12:37:43Z</time>
      </trkpt>
      <trkpt lat="59.218433714119" lon="17.906233607811">
        <ele>39.2</ele>
        <time>2020-04-17T12:37:44Z</time>
      </trkpt>
      <trkpt lat="59.218466152072" lon="17.906302255572">
        <ele>39.2</ele>
        <time>2020-04-17T12:37:45Z</time>
      </trkpt>
      <trkpt lat="59.218491549229" lon="17.906374339912">
        <ele>39.4</ele>
        <time>2020-04-17T12:37:46Z</time>
      </trkpt>
      <trkpt lat="59.218518874223" lon="17.906443909682">
        <ele>39.4</ele>
        <time>2020-04-17T12:37:47Z</time>
      </trkpt>
      <trkpt lat="59.218546031579" lon="17.90650945614">
        <ele>39.4</ele>
        <time>2020-04-17T12:37:48Z</time>
      </trkpt>
      <trkpt lat="59.218570422908" lon="17.906569302906">
        <ele>39.4</ele>
        <time>2020-04-17T12:37:49Z</time>
      </trkpt>
      <trkpt lat="59.218597328807" lon="17.906624958722">
        <ele>39.4</ele>
        <time>2020-04-17T12:37:50Z</time>
      </trkpt>
      <trkpt lat="59.218617110091" lon="17.906675920674">
        <ele>39.2</ele>
        <time>2020-04-17T12:37:51Z</time>
      </trkpt>
      <trkpt lat="59.218636388461" lon="17.906726463531">
        <ele>39</ele>
        <time>2020-04-17T12:37:52Z</time>
      </trkpt>
      <trkpt lat="59.218657678487" lon="17.906780359148">
        <ele>38.8</ele>
        <time>2020-04-17T12:37:53Z</time>
      </trkpt>
      <trkpt lat="59.218686428404" lon="17.906839116267">
        <ele>38.8</ele>
        <time>2020-04-17T12:37:54Z</time>
      </trkpt>
      <trkpt lat="59.218711825561" lon="17.906903237802">
        <ele>38.6</ele>
        <time>2020-04-17T12:37:55Z</time>
      </trkpt>
      <trkpt lat="59.218739821107" lon="17.906969287174">
        <ele>38.6</ele>
        <time>2020-04-17T12:37:56Z</time>
      </trkpt>
      <trkpt lat="59.218763625703" lon="17.907037096745">
        <ele>38.6</ele>
        <time>2020-04-17T12:37:57Z</time>
      </trkpt>
      <trkpt lat="59.218788939041" lon="17.907101972651">
        <ele>38.6</ele>
        <time>2020-04-17T12:37:58Z</time>
      </trkpt>
      <trkpt lat="59.218807882135" lon="17.907168524937">
        <ele>38.8</ele>
        <time>2020-04-17T12:37:59Z</time>
      </trkpt>
      <trkpt lat="59.218827076686" lon="17.907230886273">
        <ele>38.8</ele>
        <time>2020-04-17T12:38:00Z</time>
      </trkpt>
      <trkpt lat="59.218844930133" lon="17.907289894849">
        <ele>38.8</ele>
        <time>2020-04-17T12:38:01Z</time>
      </trkpt>
      <trkpt lat="59.218866890711" lon="17.907346053579">
        <ele>38.8</ele>
        <time>2020-04-17T12:38:02Z</time>
      </trkpt>
      <trkpt lat="59.218878793009" lon="17.907410845666">
        <ele>38.8</ele>
        <time>2020-04-17T12:38:03Z</time>
      </trkpt>
      <trkpt lat="59.218885247072" lon="17.907478739056">
        <ele>38.6</ele>
        <time>2020-04-17T12:38:04Z</time>
      </trkpt>
      <trkpt lat="59.218881391398" lon="17.907549482292">
        <ele>38.8</ele>
        <time>2020-04-17T12:38:05Z</time>
      </trkpt>
      <trkpt lat="59.218874769697" lon="17.907625338487">
        <ele>38.8</ele>
        <time>2020-04-17T12:38:06Z</time>
      </trkpt>
      <trkpt lat="59.21887284186" lon="17.907704295985">
        <ele>39</ele>
        <time>2020-04-17T12:38:07Z</time>
      </trkpt>
      <trkpt lat="59.218878290095" lon="17.9077784758">
        <ele>39</ele>
        <time>2020-04-17T12:38:08Z</time>
      </trkpt>
      <trkpt lat="59.218890527669" lon="17.907852404158">
        <ele>39.2</ele>
        <time>2020-04-17T12:38:09Z</time>
      </trkpt>
      <trkpt lat="59.218910979505" lon="17.907917028607">
        <ele>39.2</ele>
        <time>2020-04-17T12:38:10Z</time>
      </trkpt>
      <trkpt lat="59.218938136861" lon="17.907976204821">
        <ele>39.2</ele>
        <time>2020-04-17T12:38:11Z</time>
      </trkpt>
      <trkpt lat="59.218965210398" lon="17.908039320528">
        <ele>39.2</ele>
        <time>2020-04-17T12:38:12Z</time>
      </trkpt>
      <trkpt lat="59.218994127953" lon="17.90810453171">
        <ele>39.2</ele>
        <time>2020-04-17T12:38:13Z</time>
      </trkpt>
      <trkpt lat="59.219020530938" lon="17.908168737064">
        <ele>39.2</ele>
        <time>2020-04-17T12:38:14Z</time>
      </trkpt>
      <trkpt lat="59.219044754629" lon="17.908230930762">
        <ele>39.2</ele>
        <time>2020-04-17T12:38:15Z</time>
      </trkpt>
      <trkpt lat="59.219070906157" lon="17.908296309582">
        <ele>39.4</ele>
        <time>2020-04-17T12:38:16Z</time>
      </trkpt>
      <trkpt lat="59.219097057685" lon="17.908367388094">
        <ele>39.4</ele>
        <time>2020-04-17T12:38:17Z</time>
      </trkpt>
      <trkpt lat="59.21912346067" lon="17.908439137158">
        <ele>39.4</ele>
        <time>2020-04-17T12:38:18Z</time>
      </trkpt>
      <trkpt lat="59.219148941646" lon="17.90850937748">
        <ele>39.4</ele>
        <time>2020-04-17T12:38:19Z</time>
      </trkpt>
      <trkpt lat="59.219174338803" lon="17.908578611974">
        <ele>39.4</ele>
        <time>2020-04-17T12:38:20Z</time>
      </trkpt>
      <trkpt lat="59.219198562494" lon="17.908647427373">
        <ele>39.6</ele>
        <time>2020-04-17T12:38:21Z</time>
      </trkpt>
      <trkpt lat="59.219245249677" lon="17.908775251348">
        <ele>40.2</ele>
        <time>2020-04-17T12:38:23Z</time>
      </trkpt>
      <trkpt lat="59.219270227739" lon="17.908831661535">
        <ele>40.6</ele>
        <time>2020-04-17T12:38:24Z</time>
      </trkpt>
      <trkpt lat="59.219291685403" lon="17.908887484989">
        <ele>41</ele>
        <time>2020-04-17T12:38:25Z</time>
      </trkpt>
      <trkpt lat="59.219315489999" lon="17.908940961511">
        <ele>41.2</ele>
        <time>2020-04-17T12:38:26Z</time>
      </trkpt>
      <trkpt lat="59.219336612387" lon="17.908992761653">
        <ele>41.4</ele>
        <time>2020-04-17T12:38:27Z</time>
      </trkpt>
      <trkpt lat="59.219359411155" lon="17.909039197379">
        <ele>41.4</ele>
        <time>2020-04-17T12:38:28Z</time>
      </trkpt>
      <trkpt lat="59.219381287914" lon="17.909085465467">
        <ele>41.6</ele>
        <time>2020-04-17T12:38:29Z</time>
      </trkpt>
      <trkpt lat="59.219403583768" lon="17.909132571745">
        <ele>41.6</ele>
        <time>2020-04-17T12:38:30Z</time>
      </trkpt>
      <trkpt lat="59.219426382536" lon="17.909183198421">
        <ele>41.8</ele>
        <time>2020-04-17T12:38:31Z</time>
      </trkpt>
      <trkpt lat="59.219450773865" lon="17.909237177857">
        <ele>41.8</ele>
        <time>2020-04-17T12:38:32Z</time>
      </trkpt>
      <trkpt lat="59.219496790496" lon="17.90934253834">
        <ele>42</ele>
        <time>2020-04-17T12:38:34Z</time>
      </trkpt>
      <trkpt lat="59.219517829065" lon="17.909393751749">
        <ele>42.2</ele>
        <time>2020-04-17T12:38:35Z</time>
      </trkpt>
      <trkpt lat="59.219536772159" lon="17.909443288778">
        <ele>42.2</ele>
        <time>2020-04-17T12:38:36Z</time>
      </trkpt>
      <trkpt lat="59.219554960882" lon="17.909489389228">
        <ele>42.2</ele>
        <time>2020-04-17T12:38:37Z</time>
      </trkpt>
      <trkpt lat="59.219574323071" lon="17.909531717823">
        <ele>42.2</ele>
        <time>2020-04-17T12:38:38Z</time>
      </trkpt>
      <trkpt lat="59.219593098527" lon="17.909570693658">
        <ele>42.2</ele>
        <time>2020-04-17T12:38:39Z</time>
      </trkpt>
      <trkpt lat="59.219611119612" lon="17.909606652009">
        <ele>42.2</ele>
        <time>2020-04-17T12:38:40Z</time>
      </trkpt>
      <trkpt lat="59.219627967231" lon="17.909640598704">
        <ele>42.2</ele>
        <time>2020-04-17T12:38:41Z</time>
      </trkpt>
      <trkpt lat="59.219648251429" lon="17.909670354449">
        <ele>42.2</ele>
        <time>2020-04-17T12:38:42Z</time>
      </trkpt>
      <trkpt lat="59.219670044369" lon="17.909696757434">
        <ele>42.2</ele>
        <time>2020-04-17T12:38:43Z</time>
      </trkpt>
      <trkpt lat="59.219695357707" lon="17.909716790175">
        <ele>42.2</ele>
        <time>2020-04-17T12:38:44Z</time>
      </trkpt>
      <trkpt lat="59.219717485923" lon="17.909732799604">
        <ele>42.2</ele>
        <time>2020-04-17T12:38:45Z</time>
      </trkpt>
      <trkpt lat="59.219744643279" lon="17.909742271151">
        <ele>42.2</ele>
        <time>2020-04-17T12:38:46Z</time>
      </trkpt>
      <trkpt lat="59.21977305792" lon="17.909746965015">
        <ele>42</ele>
        <time>2020-04-17T12:38:47Z</time>
      </trkpt>
      <trkpt lat="59.219801388742" lon="17.909759873141">
        <ele>42</ele>
        <time>2020-04-17T12:38:48Z</time>
      </trkpt>
      <trkpt lat="59.219828294641" lon="17.909789712705">
        <ele>42</ele>
        <time>2020-04-17T12:38:49Z</time>
      </trkpt>
      <trkpt lat="59.219850758133" lon="17.909831957481">
        <ele>42</ele>
        <time>2020-04-17T12:38:50Z</time>
      </trkpt>
      <trkpt lat="59.219869617408" lon="17.909877806474">
        <ele>42</ele>
        <time>2020-04-17T12:38:51Z</time>
      </trkpt>
      <trkpt lat="59.219890069244" lon="17.90992172763">
        <ele>41.8</ele>
        <time>2020-04-17T12:38:52Z</time>
      </trkpt>
      <trkpt lat="59.219911862184" lon="17.909967576623">
        <ele>41.8</ele>
        <time>2020-04-17T12:38:53Z</time>
      </trkpt>
      <trkpt lat="59.219932649296" lon="17.91001979586">
        <ele>41.8</ele>
        <time>2020-04-17T12:38:54Z</time>
      </trkpt>
      <trkpt lat="59.219954274598" lon="17.910074026753">
        <ele>41.8</ele>
        <time>2020-04-17T12:38:55Z</time>
      </trkpt>
      <trkpt lat="59.219975480805" lon="17.9101254078">
        <ele>41.8</ele>
        <time>2020-04-17T12:38:56Z</time>
      </trkpt>
      <trkpt lat="59.219998195754" lon="17.910175028648">
        <ele>41.8</ele>
        <time>2020-04-17T12:38:57Z</time>
      </trkpt>
      <trkpt lat="59.220021665074" lon="17.910228169894">
        <ele>42</ele>
        <time>2020-04-17T12:38:58Z</time>
      </trkpt>
      <trkpt lat="59.220045134394" lon="17.910283574253">
        <ele>41.8</ele>
        <time>2020-04-17T12:38:59Z</time>
      </trkpt>
      <trkpt lat="59.220069022809" lon="17.910341241725">
        <ele>41.8</ele>
        <time>2020-04-17T12:39:00Z</time>
      </trkpt>
      <trkpt lat="59.220090312835" lon="17.910401256129">
        <ele>41.8</ele>
        <time>2020-04-17T12:39:01Z</time>
      </trkpt>
      <trkpt lat="59.220111519042" lon="17.910458923601">
        <ele>41.8</ele>
        <time>2020-04-17T12:39:02Z</time>
      </trkpt>
      <trkpt lat="59.22013180324" lon="17.910512903037">
        <ele>41.8</ele>
        <time>2020-04-17T12:39:03Z</time>
      </trkpt>
      <trkpt lat="59.220149572868" lon="17.910565289912">
        <ele>42</ele>
        <time>2020-04-17T12:39:04Z</time>
      </trkpt>
      <trkpt lat="59.220165666116" lon="17.910615329855">
        <ele>42</ele>
        <time>2020-04-17T12:39:05Z</time>
      </trkpt>
      <trkpt lat="59.220182765192" lon="17.91066352578">
        <ele>42.2</ele>
        <time>2020-04-17T12:39:06Z</time>
      </trkpt>
      <trkpt lat="59.220200618639" lon="17.910713314266">
        <ele>42.2</ele>
        <time>2020-04-17T12:39:07Z</time>
      </trkpt>
      <trkpt lat="59.220218975" lon="17.910765030589">
        <ele>42.2</ele>
        <time>2020-04-17T12:39:08Z</time>
      </trkpt>
      <trkpt lat="59.22023909156" lon="17.910816327817">
        <ele>42.2</ele>
        <time>2020-04-17T12:39:09Z</time>
      </trkpt>
      <trkpt lat="59.220258956663" lon="17.910865781027">
        <ele>42.2</ele>
        <time>2020-04-17T12:39:10Z</time>
      </trkpt>
      <trkpt lat="59.220277564481" lon="17.910912803486">
        <ele>42.2</ele>
        <time>2020-04-17T12:39:11Z</time>
      </trkpt>
      <trkpt lat="59.220294160643" lon="17.910958652479">
        <ele>42.2</ele>
        <time>2020-04-17T12:39:12Z</time>
      </trkpt>
      <trkpt lat="59.220307068769" lon="17.911003495644">
        <ele>42.2</ele>
        <time>2020-04-17T12:39:13Z</time>
      </trkpt>
      <trkpt lat="59.220321653275" lon="17.911043896402">
        <ele>42.2</ele>
        <time>2020-04-17T12:39:14Z</time>
      </trkpt>
      <trkpt lat="59.22033799798" lon="17.911082704599">
        <ele>42.2</ele>
        <time>2020-04-17T12:39:15Z</time>
      </trkpt>
      <trkpt lat="59.220354929418" lon="17.911122937719">
        <ele>42.2</ele>
        <time>2020-04-17T12:39:16Z</time>
      </trkpt>
      <trkpt lat="59.220371860856" lon="17.911166775056">
        <ele>42.2</ele>
        <time>2020-04-17T12:39:17Z</time>
      </trkpt>
      <trkpt lat="59.220388457018" lon="17.911216144447">
        <ele>42.2</ele>
        <time>2020-04-17T12:39:18Z</time>
      </trkpt>
      <trkpt lat="59.220404885542" lon="17.911268950417">
        <ele>42.2</ele>
        <time>2020-04-17T12:39:19Z</time>
      </trkpt>
      <trkpt lat="59.220422068437" lon="17.911321924025">
        <ele>42.2</ele>
        <time>2020-04-17T12:39:20Z</time>
      </trkpt>
      <trkpt lat="59.220443023187" lon="17.911371125778">
        <ele>42.2</ele>
        <time>2020-04-17T12:39:21Z</time>
      </trkpt>
      <trkpt lat="59.220464145575" lon="17.911421584816">
        <ele>42.2</ele>
        <time>2020-04-17T12:39:22Z</time>
      </trkpt>
      <trkpt lat="59.220485770877" lon="17.911475564252">
        <ele>42.2</ele>
        <time>2020-04-17T12:39:23Z</time>
      </trkpt>
      <trkpt lat="59.220508821102" lon="17.911530800973">
        <ele>42.2</ele>
        <time>2020-04-17T12:39:24Z</time>
      </trkpt>
      <trkpt lat="59.220531787508" lon="17.911588552264">
        <ele>42.2</ele>
        <time>2020-04-17T12:39:25Z</time>
      </trkpt>
      <trkpt lat="59.220553161353" lon="17.911649488677">
        <ele>42.4</ele>
        <time>2020-04-17T12:39:26Z</time>
      </trkpt>
      <trkpt lat="59.220573948465" lon="17.911709251624">
        <ele>42.4</ele>
        <time>2020-04-17T12:39:27Z</time>
      </trkpt>
      <trkpt lat="59.220594819396" lon="17.911764236888">
        <ele>42.6</ele>
        <time>2020-04-17T12:39:28Z</time>
      </trkpt>
      <trkpt lat="59.220615774146" lon="17.911814612107">
        <ele>42.6</ele>
        <time>2020-04-17T12:39:29Z</time>
      </trkpt>
      <trkpt lat="59.220635974525" lon="17.911867418077">
        <ele>42.6</ele>
        <time>2020-04-17T12:39:30Z</time>
      </trkpt>
      <trkpt lat="59.220655504352" lon="17.911925169368">
        <ele>42.6</ele>
        <time>2020-04-17T12:39:31Z</time>
      </trkpt>
      <trkpt lat="59.220699509327" lon="17.912042851244">
        <ele>42.8</ele>
        <time>2020-04-17T12:39:33Z</time>
      </trkpt>
      <trkpt lat="59.220722140457" lon="17.912103452381">
        <ele>42.8</ele>
        <time>2020-04-17T12:39:34Z</time>
      </trkpt>
      <trkpt lat="59.220745525958" lon="17.912163550604">
        <ele>42.8</ele>
        <time>2020-04-17T12:39:35Z</time>
      </trkpt>
      <trkpt lat="59.220770252563" lon="17.912222223904">
        <ele>42.8</ele>
        <time>2020-04-17T12:39:36Z</time>
      </trkpt>
      <trkpt lat="59.220795733539" lon="17.912281651575">
        <ele>42.8</ele>
        <time>2020-04-17T12:39:37Z</time>
      </trkpt>
      <trkpt lat="59.220818951402" lon="17.912343761454">
        <ele>42.8</ele>
        <time>2020-04-17T12:39:38Z</time>
      </trkpt>
      <trkpt lat="59.220842085446" lon="17.912406793342">
        <ele>43</ele>
        <time>2020-04-17T12:39:39Z</time>
      </trkpt>
      <trkpt lat="59.220866141499" lon="17.912468651764">
        <ele>43</ele>
        <time>2020-04-17T12:39:40Z</time>
      </trkpt>
      <trkpt lat="59.220889778457" lon="17.91252766034">
        <ele>43.2</ele>
        <time>2020-04-17T12:39:41Z</time>
      </trkpt>
      <trkpt lat="59.220912912501" lon="17.912581639776">
        <ele>43.2</ele>
        <time>2020-04-17T12:39:42Z</time>
      </trkpt>
      <trkpt lat="59.220934873079" lon="17.912633104642">
        <ele>43.4</ele>
        <time>2020-04-17T12:39:43Z</time>
      </trkpt>
      <trkpt lat="59.220954151449" lon="17.912686832621">
        <ele>43.6</ele>
        <time>2020-04-17T12:39:44Z</time>
      </trkpt>
      <trkpt lat="59.220973010724" lon="17.912740728238">
        <ele>43.8</ele>
        <time>2020-04-17T12:39:45Z</time>
      </trkpt>
      <trkpt lat="59.220992037637" lon="17.912794623855">
        <ele>43.8</ele>
        <time>2020-04-17T12:39:46Z</time>
      </trkpt>
      <trkpt lat="59.221012070378" lon="17.912848435653">
        <ele>44</ele>
        <time>2020-04-17T12:39:47Z</time>
      </trkpt>
      <trkpt lat="59.221032941309" lon="17.912901995994">
        <ele>44.2</ele>
        <time>2020-04-17T12:39:48Z</time>
      </trkpt>
      <trkpt lat="59.221053057869" lon="17.912956645982">
        <ele>44.4</ele>
        <time>2020-04-17T12:39:49Z</time>
      </trkpt>
      <trkpt lat="59.221073509705" lon="17.913011463608">
        <ele>44.6</ele>
        <time>2020-04-17T12:39:50Z</time>
      </trkpt>
      <trkpt lat="59.221094464455" lon="17.913067119424">
        <ele>44.8</ele>
        <time>2020-04-17T12:39:51Z</time>
      </trkpt>
      <trkpt lat="59.221113659006" lon="17.913123529611">
        <ele>45</ele>
        <time>2020-04-17T12:39:52Z</time>
      </trkpt>
      <trkpt lat="59.221132350643" lon="17.913174994477">
        <ele>45</ele>
        <time>2020-04-17T12:39:53Z</time>
      </trkpt>
      <trkpt lat="59.221152886298" lon="17.913221262565">
        <ele>45</ele>
        <time>2020-04-17T12:39:54Z</time>
      </trkpt>
      <trkpt lat="59.221174008686" lon="17.91326778211">
        <ele>45</ele>
        <time>2020-04-17T12:39:55Z</time>
      </trkpt>
      <trkpt lat="59.221193203237" lon="17.9133189117">
        <ele>45.2</ele>
        <time>2020-04-17T12:39:56Z</time>
      </trkpt>
      <trkpt lat="59.221210050856" lon="17.913371214756">
        <ele>45.2</ele>
        <time>2020-04-17T12:39:57Z</time>
      </trkpt>
      <trkpt lat="59.221222036973" lon="17.913424356002">
        <ele>45.4</ele>
        <time>2020-04-17T12:39:58Z</time>
      </trkpt>
      <trkpt lat="59.221224803" lon="17.913477497248">
        <ele>45.4</ele>
        <time>2020-04-17T12:39:59Z</time>
      </trkpt>
      <trkpt lat="59.221220025317" lon="17.913525776992">
        <ele>45.4</ele>
        <time>2020-04-17T12:40:00Z</time>
      </trkpt>
      <trkpt lat="59.221216253462" lon="17.913568021768">
        <ele>45.4</ele>
        <time>2020-04-17T12:40:01Z</time>
      </trkpt>
      <trkpt lat="59.221218684213" lon="17.913604902128">
        <ele>45.6</ele>
        <time>2020-04-17T12:40:02Z</time>
      </trkpt>
      <trkpt lat="59.221229077769" lon="17.913634322597">
        <ele>45.6</ele>
        <time>2020-04-17T12:40:03Z</time>
      </trkpt>
      <trkpt lat="59.221247098854" lon="17.913650499664">
        <ele>45.6</ele>
        <time>2020-04-17T12:40:04Z</time>
      </trkpt>
      <trkpt lat="59.221268305061" lon="17.913654858252">
        <ele>45.8</ele>
        <time>2020-04-17T12:40:05Z</time>
      </trkpt>
      <trkpt lat="59.221289175992" lon="17.913655109709">
        <ele>45.8</ele>
        <time>2020-04-17T12:40:06Z</time>
      </trkpt>
      <trkpt lat="59.221312226217" lon="17.91365083494">
        <ele>45.8</ele>
        <time>2020-04-17T12:40:07Z</time>
      </trkpt>
      <trkpt lat="59.221339215935" lon="17.91363658571">
        <ele>46</ele>
        <time>2020-04-17T12:40:08Z</time>
      </trkpt>
      <trkpt lat="59.221366121834" lon="17.913611104734">
        <ele>46</ele>
        <time>2020-04-17T12:40:09Z</time>
      </trkpt>
      <trkpt lat="59.22138992643" lon="17.9135787506">
        <ele>46.2</ele>
        <time>2020-04-17T12:40:10Z</time>
      </trkpt>
      <trkpt lat="59.221412641379" lon="17.913538433661">
        <ele>46.4</ele>
        <time>2020-04-17T12:40:11Z</time>
      </trkpt>
      <trkpt lat="59.221425298048" lon="17.913486130605">
        <ele>46.4</ele>
        <time>2020-04-17T12:40:12Z</time>
      </trkpt>
      <trkpt lat="59.221418341071" lon="17.9134278764">
        <ele>46.4</ele>
        <time>2020-04-17T12:40:13Z</time>
      </trkpt>
      <trkpt lat="59.221397051045" lon="17.91337339405">
        <ele>46.4</ele>
        <time>2020-04-17T12:40:14Z</time>
      </trkpt>
      <trkpt lat="59.221371318612" lon="17.91332058808">
        <ele>46.4</ele>
        <time>2020-04-17T12:40:15Z</time>
      </trkpt>
      <trkpt lat="59.221346675826" lon="17.913264513169">
        <ele>46.6</ele>
        <time>2020-04-17T12:40:16Z</time>
      </trkpt>
      <trkpt lat="59.22132454761" lon="17.913208605896">
        <ele>46.6</ele>
        <time>2020-04-17T12:40:17Z</time>
      </trkpt>
      <trkpt lat="59.221303089946" lon="17.91315546465">
        <ele>46.6</ele>
        <time>2020-04-17T12:40:18Z</time>
      </trkpt>
      <trkpt lat="59.221281380825" lon="17.913098886825">
        <ele>46.6</ele>
        <time>2020-04-17T12:40:19Z</time>
      </trkpt>
      <trkpt lat="59.221259755523" lon="17.913037531317">
        <ele>46.6</ele>
        <time>2020-04-17T12:40:20Z</time>
      </trkpt>
      <trkpt lat="59.221237543488" lon="17.912978941836">
        <ele>46.2</ele>
        <time>2020-04-17T12:40:21Z</time>
      </trkpt>
      <trkpt lat="59.22121558291" lon="17.912921861097">
        <ele>45.8</ele>
        <time>2020-04-17T12:40:22Z</time>
      </trkpt>
      <trkpt lat="59.22118792264" lon="17.912855224992">
        <ele>45.4</ele>
        <time>2020-04-17T12:40:23Z</time>
      </trkpt>
      <trkpt lat="59.221164788596" lon="17.912791774009">
        <ele>45.2</ele>
        <time>2020-04-17T12:40:24Z</time>
      </trkpt>
      <trkpt lat="59.221143414751" lon="17.912728658302">
        <ele>45</ele>
        <time>2020-04-17T12:40:25Z</time>
      </trkpt>
      <trkpt lat="59.221121957087" lon="17.91266763807">
        <ele>45</ele>
        <time>2020-04-17T12:40:26Z</time>
      </trkpt>
      <trkpt lat="59.221098823043" lon="17.912610138236">
        <ele>44.8</ele>
        <time>2020-04-17T12:40:27Z</time>
      </trkpt>
      <trkpt lat="59.221076275732" lon="17.912553225135">
        <ele>44.8</ele>
        <time>2020-04-17T12:40:28Z</time>
      </trkpt>
      <trkpt lat="59.221053141688" lon="17.912496563491">
        <ele>44.6</ele>
        <time>2020-04-17T12:40:29Z</time>
      </trkpt>
      <trkpt lat="59.221030007644" lon="17.912443254607">
        <ele>44.4</ele>
        <time>2020-04-17T12:40:30Z</time>
      </trkpt>
      <trkpt lat="59.221007460333" lon="17.912389442809">
        <ele>44.4</ele>
        <time>2020-04-17T12:40:31Z</time>
      </trkpt>
      <trkpt lat="59.220987343773" lon="17.912332026794">
        <ele>44.2</ele>
        <time>2020-04-17T12:40:32Z</time>
      </trkpt>
      <trkpt lat="59.220967227213" lon="17.912274694598">
        <ele>44</ele>
        <time>2020-04-17T12:40:33Z</time>
      </trkpt>
      <trkpt lat="59.220945098997" lon="17.912220128429">
        <ele>44</ele>
        <time>2020-04-17T12:40:34Z</time>
      </trkpt>
      <trkpt lat="59.220920623849" lon="17.912159862568">
        <ele>44</ele>
        <time>2020-04-17T12:40:35Z</time>
      </trkpt>
      <trkpt lat="59.22089287976" lon="17.912090628074">
        <ele>44</ele>
        <time>2020-04-17T12:40:36Z</time>
      </trkpt>
      <trkpt lat="59.220865387128" lon="17.912020723028">
        <ele>43.8</ele>
        <time>2020-04-17T12:40:37Z</time>
      </trkpt>
      <trkpt lat="59.220838062134" lon="17.911949812154">
        <ele>43.8</ele>
        <time>2020-04-17T12:40:38Z</time>
      </trkpt>
      <trkpt lat="59.220811994425" lon="17.91188141585">
        <ele>43.6</ele>
        <time>2020-04-17T12:40:39Z</time>
      </trkpt>
      <trkpt lat="59.220785256164" lon="17.911813690098">
        <ele>43.6</ele>
        <time>2020-04-17T12:40:40Z</time>
      </trkpt>
      <trkpt lat="59.220757344437" lon="17.911747976002">
        <ele>43.6</ele>
        <time>2020-04-17T12:40:41Z</time>
      </trkpt>
      <trkpt lat="59.220730773814" lon="17.911683100096">
        <ele>43.6</ele>
        <time>2020-04-17T12:40:42Z</time>
      </trkpt>
      <trkpt lat="59.220703616458" lon="17.911615206706">
        <ele>43.4</ele>
        <time>2020-04-17T12:40:43Z</time>
      </trkpt>
      <trkpt lat="59.220677716387" lon="17.911547983868">
        <ele>43.2</ele>
        <time>2020-04-17T12:40:44Z</time>
      </trkpt>
      <trkpt lat="59.220657013094" lon="17.91147992284">
        <ele>43</ele>
        <time>2020-04-17T12:40:45Z</time>
      </trkpt>
      <trkpt lat="59.220652654506" lon="17.911404401921">
        <ele>42.8</ele>
        <time>2020-04-17T12:40:46Z</time>
      </trkpt>
      <trkpt lat="59.220671681419" lon="17.91133910692">
        <ele>42.8</ele>
        <time>2020-04-17T12:40:47Z</time>
      </trkpt>
      <trkpt lat="59.220704035553" lon="17.911288312606">
        <ele>42.8</ele>
        <time>2020-04-17T12:40:48Z</time>
      </trkpt>
      <trkpt lat="59.220739742447" lon="17.911238272663">
        <ele>42.6</ele>
        <time>2020-04-17T12:40:49Z</time>
      </trkpt>
      <trkpt lat="59.220779305015" lon="17.911186807797">
        <ele>42.6</ele>
        <time>2020-04-17T12:40:50Z</time>
      </trkpt>
      <trkpt lat="59.220819873411" lon="17.911133331275">
        <ele>42.6</ele>
        <time>2020-04-17T12:40:51Z</time>
      </trkpt>
      <trkpt lat="59.22086270492" lon="17.911068455369">
        <ele>42.6</ele>
        <time>2020-04-17T12:40:52Z</time>
      </trkpt>
      <trkpt lat="59.220903357135" lon="17.91100969825">
        <ele>42.6</ele>
        <time>2020-04-17T12:40:53Z</time>
      </trkpt>
      <trkpt lat="59.22094233297" lon="17.910947839828">
        <ele>42.6</ele>
        <time>2020-04-17T12:40:54Z</time>
      </trkpt>
      <trkpt lat="59.220980135339" lon="17.910886987234">
        <ele>42.6</ele>
        <time>2020-04-17T12:40:55Z</time>
      </trkpt>
      <trkpt lat="59.221016680423" lon="17.910828733029">
        <ele>42.4</ele>
        <time>2020-04-17T12:40:56Z</time>
      </trkpt>
      <trkpt lat="59.221048699281" lon="17.910768718625">
        <ele>42.4</ele>
        <time>2020-04-17T12:40:57Z</time>
      </trkpt>
      <trkpt lat="59.221076275732" lon="17.9107037589">
        <ele>42.4</ele>
        <time>2020-04-17T12:40:58Z</time>
      </trkpt>
      <trkpt lat="59.221094464455" lon="17.910626226325">
        <ele>42.4</ele>
        <time>2020-04-17T12:40:59Z</time>
      </trkpt>
      <trkpt lat="59.221101253794" lon="17.910540060393">
        <ele>42.4</ele>
        <time>2020-04-17T12:41:00Z</time>
      </trkpt>
      <trkpt lat="59.221096895206" lon="17.910454062099">
        <ele>42.4</ele>
        <time>2020-04-17T12:41:01Z</time>
      </trkpt>
      <trkpt lat="59.221085831098" lon="17.910372003298">
        <ele>42.4</ele>
        <time>2020-04-17T12:41:02Z</time>
      </trkpt>
      <trkpt lat="59.221070743678" lon="17.910294135447">
        <ele>42.4</ele>
        <time>2020-04-17T12:41:03Z</time>
      </trkpt>
      <trkpt lat="59.221053141688" lon="17.910224817134">
        <ele>42.4</ele>
        <time>2020-04-17T12:41:04Z</time>
      </trkpt>
      <trkpt lat="59.221035874974" lon="17.910167149662">
        <ele>42.4</ele>
        <time>2020-04-17T12:41:05Z</time>
      </trkpt>
      <trkpt lat="59.221018692079" lon="17.910115181882">
        <ele>42.4</ele>
        <time>2020-04-17T12:41:06Z</time>
      </trkpt>
      <trkpt lat="59.221004610487" lon="17.91007092545">
        <ele>42.4</ele>
        <time>2020-04-17T12:41:07Z</time>
      </trkpt>
      <trkpt lat="59.220993211103" lon="17.910033290719">
        <ele>42.4</ele>
        <time>2020-04-17T12:41:08Z</time>
      </trkpt>
      <trkpt lat="59.220983823375" lon="17.909996997092">
        <ele>42.4</ele>
        <time>2020-04-17T12:41:09Z</time>
      </trkpt>
      <trkpt lat="59.22097418419" lon="17.909958691809">
        <ele>42.4</ele>
        <time>2020-04-17T12:41:10Z</time>
      </trkpt>
      <trkpt lat="59.220965215557" lon="17.90992088944">
        <ele>42.6</ele>
        <time>2020-04-17T12:41:11Z</time>
      </trkpt>
      <trkpt lat="59.220955324915" lon="17.909886272193">
        <ele>42.6</ele>
        <time>2020-04-17T12:41:12Z</time>
      </trkpt>
      <trkpt lat="59.220946104825" lon="17.909853247507">
        <ele>42.6</ele>
        <time>2020-04-17T12:41:13Z</time>
      </trkpt>
      <trkpt lat="59.220938812572" lon="17.909818211165">
        <ele>43</ele>
        <time>2020-04-17T12:41:14Z</time>
      </trkpt>
      <trkpt lat="59.220931855595" lon="17.909772110715">
        <ele>43.4</ele>
        <time>2020-04-17T12:41:15Z</time>
      </trkpt>
      <trkpt lat="59.220920707668" lon="17.909714527062">
        <ele>43.8</ele>
        <time>2020-04-17T12:41:16Z</time>
      </trkpt>
      <trkpt lat="59.220904446782" lon="17.909649232061">
        <ele>44</ele>
        <time>2020-04-17T12:41:17Z</time>
      </trkpt>
      <trkpt lat="59.220890700466" lon="17.909582679775">
        <ele>44.2</ele>
        <time>2020-04-17T12:41:18Z</time>
      </trkpt>
      <trkpt lat="59.220878546711" lon="17.909513445281">
        <ele>44.2</ele>
        <time>2020-04-17T12:41:19Z</time>
      </trkpt>
      <trkpt lat="59.220866141499" lon="17.909439265466">
        <ele>44.2</ele>
        <time>2020-04-17T12:41:20Z</time>
      </trkpt>
      <trkpt lat="59.220853401011" lon="17.909367600221">
        <ele>44.2</ele>
        <time>2020-04-17T12:41:21Z</time>
      </trkpt>
      <trkpt lat="59.220841414894" lon="17.909300293564">
        <ele>44.2</ele>
        <time>2020-04-17T12:41:22Z</time>
      </trkpt>
      <trkpt lat="59.220831524252" lon="17.909236339667">
        <ele>44.2</ele>
        <time>2020-04-17T12:41:23Z</time>
      </trkpt>
      <trkpt lat="59.220823226171" lon="17.909174229788">
        <ele>44.2</ele>
        <time>2020-04-17T12:41:24Z</time>
      </trkpt>
      <trkpt lat="59.220814592814" lon="17.909114466841">
        <ele>44.2</ele>
        <time>2020-04-17T12:41:25Z</time>
      </trkpt>
      <trkpt lat="59.220804785991" lon="17.90905587736">
        <ele>44.2</ele>
        <time>2020-04-17T12:41:26Z</time>
      </trkpt>
      <trkpt lat="59.220793218969" lon="17.908995695318">
        <ele>44</ele>
        <time>2020-04-17T12:41:27Z</time>
      </trkpt>
      <trkpt lat="59.220782406318" lon="17.908935010362">
        <ele>43.8</ele>
        <time>2020-04-17T12:41:28Z</time>
      </trkpt>
      <trkpt lat="59.220769246735" lon="17.908871727017">
        <ele>43.8</ele>
        <time>2020-04-17T12:41:29Z</time>
      </trkpt>
      <trkpt lat="59.220748878718" lon="17.908818250495">
        <ele>43.6</ele>
        <time>2020-04-17T12:41:30Z</time>
      </trkpt>
      <trkpt lat="59.220724152113" lon="17.908781118678">
        <ele>43.6</ele>
        <time>2020-04-17T12:41:31Z</time>
      </trkpt>
      <trkpt lat="59.220698754956" lon="17.908743148671">
        <ele>43.4</ele>
        <time>2020-04-17T12:41:32Z</time>
      </trkpt>
      <trkpt lat="59.220671681419" lon="17.908707106501">
        <ele>43.2</ele>
        <time>2020-04-17T12:41:33Z</time>
      </trkpt>
      <trkpt lat="59.22064058457" lon="17.908678524222">
        <ele>43.2</ele>
        <time>2020-04-17T12:41:34Z</time>
      </trkpt>
      <trkpt lat="59.220606637875" lon="17.908658910576">
        <ele>43</ele>
        <time>2020-04-17T12:41:35Z</time>
      </trkpt>
      <trkpt lat="59.220571182438" lon="17.908645080441">
        <ele>43</ele>
        <time>2020-04-17T12:41:36Z</time>
      </trkpt>
      <trkpt lat="59.220534637354" lon="17.908634183971">
        <ele>43</ele>
        <time>2020-04-17T12:41:37Z</time>
      </trkpt>
      <trkpt lat="59.220497086442" lon="17.908620186198">
        <ele>43</ele>
        <time>2020-04-17T12:41:38Z</time>
      </trkpt>
      <trkpt lat="59.220460625177" lon="17.908599985819">
        <ele>43</ele>
        <time>2020-04-17T12:41:39Z</time>
      </trkpt>
      <trkpt lat="59.220428438681" lon="17.908566290581">
        <ele>43</ele>
        <time>2020-04-17T12:41:40Z</time>
      </trkpt>
      <trkpt lat="59.220403712076" lon="17.908527733841">
        <ele>42.8</ele>
        <time>2020-04-17T12:41:41Z</time>
      </trkpt>
      <trkpt lat="59.220381751498" lon="17.908490769662">
        <ele>42.8</ele>
        <time>2020-04-17T12:41:42Z</time>
      </trkpt>
      <trkpt lat="59.220361132024" lon="17.908457242062">
        <ele>42.8</ele>
        <time>2020-04-17T12:41:43Z</time>
      </trkpt>
      <trkpt lat="59.22034302712" lon="17.908424385014">
        <ele>42.8</ele>
        <time>2020-04-17T12:41:44Z</time>
      </trkpt>
      <trkpt lat="59.220326766234" lon="17.90838783993">
        <ele>42.8</ele>
        <time>2020-04-17T12:41:45Z</time>
      </trkpt>
      <trkpt lat="59.220311092081" lon="17.908350540475">
        <ele>42.6</ele>
        <time>2020-04-17T12:41:46Z</time>
      </trkpt>
      <trkpt lat="59.220294998833" lon="17.908316761418">
        <ele>42.4</ele>
        <time>2020-04-17T12:41:47Z</time>
      </trkpt>
      <trkpt lat="59.220277229205" lon="17.908283569094">
        <ele>42.2</ele>
        <time>2020-04-17T12:41:48Z</time>
      </trkpt>
      <trkpt lat="59.220262812337" lon="17.908250460589">
        <ele>42</ele>
        <time>2020-04-17T12:41:49Z</time>
      </trkpt>
      <trkpt lat="59.220248060193" lon="17.908210478926">
        <ele>42</ele>
        <time>2020-04-17T12:41:50Z</time>
      </trkpt>
      <trkpt lat="59.220231128755" lon="17.90816823415">
        <ele>41.8</ele>
        <time>2020-04-17T12:41:51Z</time>
      </trkpt>
      <trkpt lat="59.220204139037" lon="17.908120960234">
        <ele>41.8</ele>
        <time>2020-04-17T12:41:52Z</time>
      </trkpt>
      <trkpt lat="59.220179915346" lon="17.908079302191">
        <ele>41.8</ele>
        <time>2020-04-17T12:41:53Z</time>
      </trkpt>
      <trkpt lat="59.220155188741" lon="17.908041332184">
        <ele>41.8</ele>
        <time>2020-04-17T12:41:54Z</time>
      </trkpt>
      <trkpt lat="59.220133395801" lon="17.908001769616">
        <ele>41.8</ele>
        <time>2020-04-17T12:41:55Z</time>
      </trkpt>
      <trkpt lat="59.220113279241" lon="17.90795784846">
        <ele>41.8</ele>
        <time>2020-04-17T12:41:56Z</time>
      </trkpt>
      <trkpt lat="59.220094168509" lon="17.907912418562">
        <ele>41.8</ele>
        <time>2020-04-17T12:41:57Z</time>
      </trkpt>
      <trkpt lat="59.22007564451" lon="17.907864474094">
        <ele>41.8</ele>
        <time>2020-04-17T12:41:58Z</time>
      </trkpt>
      <trkpt lat="59.220052845742" lon="17.907809153554">
        <ele>41.8</ele>
        <time>2020-04-17T12:41:59Z</time>
      </trkpt>
      <trkpt lat="59.22002954406" lon="17.907755425575">
        <ele>41.8</ele>
        <time>2020-04-17T12:42:00Z</time>
      </trkpt>
      <trkpt lat="59.220004482179" lon="17.90770722965">
        <ele>41.8</ele>
        <time>2020-04-17T12:42:01Z</time>
      </trkpt>
      <trkpt lat="59.219979671755" lon="17.907660793924">
        <ele>41.8</ele>
        <time>2020-04-17T12:42:02Z</time>
      </trkpt>
      <trkpt lat="59.219956872987" lon="17.907609245239">
        <ele>41.8</ele>
        <time>2020-04-17T12:42:03Z</time>
      </trkpt>
      <trkpt lat="59.219936924065" lon="17.907552583595">
        <ele>41.8</ele>
        <time>2020-04-17T12:42:04Z</time>
      </trkpt>
      <trkpt lat="59.21991806479" lon="17.907492317734">
        <ele>41.8</ele>
        <time>2020-04-17T12:42:05Z</time>
      </trkpt>
      <trkpt lat="59.219897780592" lon="17.907432722425">
        <ele>41.8</ele>
        <time>2020-04-17T12:42:06Z</time>
      </trkpt>
      <trkpt lat="59.219875736195" lon="17.907375641686">
        <ele>41.8</ele>
        <time>2020-04-17T12:42:07Z</time>
      </trkpt>
      <trkpt lat="59.219853691798" lon="17.907323003354">
        <ele>41.8</ele>
        <time>2020-04-17T12:42:08Z</time>
      </trkpt>
      <trkpt lat="59.219834078152" lon="17.907271622307">
        <ele>41.8</ele>
        <time>2020-04-17T12:42:09Z</time>
      </trkpt>
    </trkseg>
  </trk>
</gpx>